
<gpx xmlns="http://www.topografix.com/GPX/1/1" xmlns:gpxx="http://www.garmin.com/xmlschemas/GpxExtensions/v3" xmlns:xsi="http://www.w3.org/2001/XMLSchema-instance" version="1.1" creator="Adze - https://getadze.com/" xsi:schemaLocation="http://www.topografix.com/GPX/1/1 http://www.topografix.com/GPX/1/1/gpx.xsd http://www.garmin.com/xmlschemas/GpxExtensions/v3 http://www.garmin.com/xmlschemas/GpxExtensionsv3.xsd">
    <metadata>
        <name>Untitled Document</name>
        <time>2018-03-05T02:26:19.696Z</time>
    </metadata>
    <wpt lon="101.315743" lat="14.325236">
        <name>Sida Resort</name>
    </wpt>
    <trk>
        <name>September 2004</name>
        <extensions>
            <gpxx:TrackExtension>
                <gpxx:DisplayColor>DarkMagenta</gpxx:DisplayColor>
            </gpxx:TrackExtension>
        </extensions>
        <trkseg>
            <trkpt lon="101.317141" lat="14.322717">
                <ele>29.457520</ele>
                <time>2004-09-25T05:55:35Z</time>
            </trkpt>
            <trkpt lon="101.317184" lat="14.322739">
                <ele>30.418823</ele>
                <time>2004-09-25T06:10:51Z</time>
            </trkpt>
            <trkpt lon="101.317420" lat="14.322910">
                <ele>29.457520</ele>
                <time>2004-09-25T06:11:05Z</time>
            </trkpt>
            <trkpt lon="101.317656" lat="14.323618">
                <ele>31.380127</ele>
                <time>2004-09-25T06:11:34Z</time>
            </trkpt>
            <trkpt lon="101.318150" lat="14.324434">
                <ele>32.341553</ele>
                <time>2004-09-25T06:11:57Z</time>
            </trkpt>
            <trkpt lon="101.318536" lat="14.324541">
                <ele>33.783447</ele>
                <time>2004-09-25T06:12:10Z</time>
            </trkpt>
            <trkpt lon="101.318922" lat="14.324949">
                <ele>34.744873</ele>
                <time>2004-09-25T06:12:27Z</time>
            </trkpt>
            <trkpt lon="101.319351" lat="14.325185">
                <ele>34.744873</ele>
                <time>2004-09-25T06:12:49Z</time>
            </trkpt>
            <trkpt lon="101.319737" lat="14.325271">
                <ele>35.706055</ele>
                <time>2004-09-25T06:13:18Z</time>
            </trkpt>
            <trkpt lon="101.319888" lat="14.325035">
                <ele>42.435425</ele>
                <time>2004-09-25T06:14:13Z</time>
            </trkpt>
            <trkpt lon="101.320274" lat="14.324691">
                <ele>42.916016</ele>
                <time>2004-09-25T06:14:56Z</time>
            </trkpt>
            <trkpt lon="101.320403" lat="14.324584">
                <ele>45.319214</ele>
                <time>2004-09-25T06:15:17Z</time>
            </trkpt>
            <trkpt lon="101.320789" lat="14.324262">
                <ele>43.396606</ele>
                <time>2004-09-25T06:15:44Z</time>
            </trkpt>
            <trkpt lon="101.321068" lat="14.324112">
                <ele>42.435425</ele>
                <time>2004-09-25T06:16:03Z</time>
            </trkpt>
            <trkpt lon="101.321282" lat="14.323704">
                <ele>84.733398</ele>
                <time>2004-09-25T06:17:27Z</time>
            </trkpt>
            <trkpt lon="101.321561" lat="14.323447">
                <ele>84.733398</ele>
                <time>2004-09-25T06:17:51Z</time>
            </trkpt>
            <trkpt lon="101.321883" lat="14.323061">
                <ele>82.330078</ele>
                <time>2004-09-25T06:18:20Z</time>
            </trkpt>
            <trkpt lon="101.322527" lat="14.322224">
                <ele>82.330078</ele>
                <time>2004-09-25T06:18:55Z</time>
            </trkpt>
            <trkpt lon="101.322634" lat="14.322031">
                <ele>81.849365</ele>
                <time>2004-09-25T06:19:01Z</time>
            </trkpt>
            <trkpt lon="101.322613" lat="14.321945">
                <ele>80.888184</ele>
                <time>2004-09-25T06:19:04Z</time>
            </trkpt>
            <trkpt lon="101.322484" lat="14.321880">
                <ele>80.407471</ele>
                <time>2004-09-25T06:19:09Z</time>
            </trkpt>
            <trkpt lon="101.322355" lat="14.321752">
                <ele>77.523438</ele>
                <time>2004-09-25T06:19:13Z</time>
            </trkpt>
            <trkpt lon="101.322312" lat="14.321687">
                <ele>77.042847</ele>
                <time>2004-09-25T06:19:15Z</time>
            </trkpt>
            <trkpt lon="101.322141" lat="14.321001">
                <ele>74.158813</ele>
                <time>2004-09-25T06:19:34Z</time>
            </trkpt>
            <trkpt lon="101.321797" lat="14.320292">
                <ele>67.910278</ele>
                <time>2004-09-25T06:19:59Z</time>
            </trkpt>
            <trkpt lon="101.321304" lat="14.320142">
                <ele>60.219727</ele>
                <time>2004-09-25T06:20:19Z</time>
            </trkpt>
            <trkpt lon="101.320746" lat="14.320185">
                <ele>56.374512</ele>
                <time>2004-09-25T06:20:38Z</time>
            </trkpt>
            <trkpt lon="101.320252" lat="14.320421">
                <ele>51.567871</ele>
                <time>2004-09-25T06:20:54Z</time>
            </trkpt>
            <trkpt lon="101.319673" lat="14.320743">
                <ele>52.048584</ele>
                <time>2004-09-25T06:21:14Z</time>
            </trkpt>
            <trkpt lon="101.319308" lat="14.320571">
                <ele>50.606567</ele>
                <time>2004-09-25T06:21:27Z</time>
            </trkpt>
            <trkpt lon="101.318965" lat="14.320443">
                <ele>46.280640</ele>
                <time>2004-09-25T06:21:39Z</time>
            </trkpt>
            <trkpt lon="101.318536" lat="14.320464">
                <ele>42.435425</ele>
                <time>2004-09-25T06:21:55Z</time>
            </trkpt>
            <trkpt lon="101.318150" lat="14.320529">
                <ele>40.032104</ele>
                <time>2004-09-25T06:22:14Z</time>
            </trkpt>
            <trkpt lon="101.317484" lat="14.320850">
                <ele>36.186768</ele>
                <time>2004-09-25T06:22:34Z</time>
            </trkpt>
            <trkpt lon="101.317441" lat="14.320936">
                <ele>36.186768</ele>
                <time>2004-09-25T06:22:37Z</time>
            </trkpt>
            <trkpt lon="101.317377" lat="14.321001">
                <ele>36.186768</ele>
                <time>2004-09-25T06:22:42Z</time>
            </trkpt>
            <trkpt lon="101.317313" lat="14.321065">
                <ele>36.667480</ele>
                <time>2004-09-25T06:22:47Z</time>
            </trkpt>
            <trkpt lon="101.316884" lat="14.320958">
                <ele>36.667480</ele>
                <time>2004-09-25T06:23:04Z</time>
            </trkpt>
            <trkpt lon="101.316819" lat="14.320936">
                <ele>36.186768</ele>
                <time>2004-09-25T06:23:08Z</time>
            </trkpt>
            <trkpt lon="101.316798" lat="14.320936">
                <ele>35.706055</ele>
                <time>2004-09-25T06:23:20Z</time>
            </trkpt>
            <trkpt lon="101.316755" lat="14.320936">
                <ele>35.225464</ele>
                <time>2004-09-25T06:23:28Z</time>
            </trkpt>
            <trkpt lon="101.316519" lat="14.320679">
                <ele>34.744873</ele>
                <time>2004-09-25T06:23:52Z</time>
            </trkpt>
            <trkpt lon="101.316433" lat="14.320250">
                <ele>31.860718</ele>
                <time>2004-09-25T06:24:09Z</time>
            </trkpt>
            <trkpt lon="101.316476" lat="14.320121">
                <ele>31.380127</ele>
                <time>2004-09-25T06:24:27Z</time>
            </trkpt>
            <trkpt lon="101.316497" lat="14.319906">
                <ele>29.938110</ele>
                <time>2004-09-25T06:24:48Z</time>
            </trkpt>
            <trkpt lon="101.316476" lat="14.319820">
                <ele>29.938110</ele>
                <time>2004-09-25T06:25:12Z</time>
            </trkpt>
            <trkpt lon="101.316197" lat="14.319413">
                <ele>29.938110</ele>
                <time>2004-09-25T06:25:33Z</time>
            </trkpt>
            <trkpt lon="101.315575" lat="14.318812">
                <ele>28.496216</ele>
                <time>2004-09-25T06:25:51Z</time>
            </trkpt>
            <trkpt lon="101.315274" lat="14.318576">
                <ele>28.015503</ele>
                <time>2004-09-25T06:26:08Z</time>
            </trkpt>
            <trkpt lon="101.314867" lat="14.318318">
                <ele>28.015503</ele>
                <time>2004-09-25T06:26:24Z</time>
            </trkpt>
            <trkpt lon="101.314416" lat="14.317932">
                <ele>26.573608</ele>
                <time>2004-09-25T06:26:50Z</time>
            </trkpt>
            <trkpt lon="101.314330" lat="14.317610">
                <ele>26.573608</ele>
                <time>2004-09-25T06:27:15Z</time>
            </trkpt>
            <trkpt lon="101.314352" lat="14.317610">
                <ele>29.938110</ele>
                <time>2004-09-25T06:27:39Z</time>
            </trkpt>
            <trkpt lon="101.314266" lat="14.317610">
                <ele>28.015503</ele>
                <time>2004-09-25T06:29:43Z</time>
            </trkpt>
            <trkpt lon="101.314244" lat="14.317524">
                <ele>29.457520</ele>
                <time>2004-09-25T06:29:46Z</time>
            </trkpt>
            <trkpt lon="101.313922" lat="14.317074">
                <ele>28.015503</ele>
                <time>2004-09-25T06:30:00Z</time>
            </trkpt>
            <trkpt lon="101.313450" lat="14.316216">
                <ele>25.612305</ele>
                <time>2004-09-25T06:30:31Z</time>
            </trkpt>
            <trkpt lon="101.313343" lat="14.316001">
                <ele>25.612305</ele>
                <time>2004-09-25T06:30:44Z</time>
            </trkpt>
            <trkpt lon="101.313300" lat="14.315915">
                <ele>26.092896</ele>
                <time>2004-09-25T06:31:01Z</time>
            </trkpt>
            <trkpt lon="101.313279" lat="14.315851">
                <ele>28.015503</ele>
                <time>2004-09-25T06:31:19Z</time>
            </trkpt>
            <trkpt lon="101.313257" lat="14.315808">
                <ele>26.092896</ele>
                <time>2004-09-25T06:31:37Z</time>
            </trkpt>
            <trkpt lon="101.313257" lat="14.315786">
                <ele>25.612305</ele>
                <time>2004-09-25T06:31:43Z</time>
            </trkpt>
            <trkpt lon="101.313257" lat="14.315743">
                <ele>24.170288</ele>
                <time>2004-09-25T06:31:55Z</time>
            </trkpt>
            <trkpt lon="101.313236" lat="14.315636">
                <ele>16.479736</ele>
                <time>2004-09-25T06:34:43Z</time>
            </trkpt>
            <trkpt lon="101.313236" lat="14.315529">
                <ele>20.324951</ele>
                <time>2004-09-25T06:34:57Z</time>
            </trkpt>
            <trkpt lon="101.313257" lat="14.315529">
                <ele>20.805664</ele>
                <time>2004-09-25T06:35:00Z</time>
            </trkpt>
            <trkpt lon="101.313300" lat="14.315464">
                <ele>21.766968</ele>
                <time>2004-09-25T06:35:04Z</time>
            </trkpt>
            <trkpt lon="101.313472" lat="14.315057">
                <ele>23.689575</ele>
                <time>2004-09-25T06:35:16Z</time>
            </trkpt>
            <trkpt lon="101.313665" lat="14.314907">
                <ele>24.170288</ele>
                <time>2004-09-25T06:35:21Z</time>
            </trkpt>
            <trkpt lon="101.314759" lat="14.314499">
                <ele>26.573608</ele>
                <time>2004-09-25T06:35:42Z</time>
            </trkpt>
            <trkpt lon="101.315897" lat="14.314091">
                <ele>28.496216</ele>
                <time>2004-09-25T06:36:05Z</time>
            </trkpt>
            <trkpt lon="101.316755" lat="14.313962">
                <ele>30.418823</ele>
                <time>2004-09-25T06:36:23Z</time>
            </trkpt>
            <trkpt lon="101.317012" lat="14.313769">
                <ele>31.380127</ele>
                <time>2004-09-25T06:36:30Z</time>
            </trkpt>
            <trkpt lon="101.317098" lat="14.313641">
                <ele>31.380127</ele>
                <time>2004-09-25T06:36:33Z</time>
            </trkpt>
            <trkpt lon="101.317163" lat="14.313447">
                <ele>30.899536</ele>
                <time>2004-09-25T06:36:37Z</time>
            </trkpt>
            <trkpt lon="101.317163" lat="14.313083">
                <ele>29.457520</ele>
                <time>2004-09-25T06:36:43Z</time>
            </trkpt>
            <trkpt lon="101.317077" lat="14.312804">
                <ele>28.976929</ele>
                <time>2004-09-25T06:36:47Z</time>
            </trkpt>
            <trkpt lon="101.317055" lat="14.311924">
                <ele>28.496216</ele>
                <time>2004-09-25T06:37:02Z</time>
            </trkpt>
            <trkpt lon="101.316991" lat="14.310851">
                <ele>27.534912</ele>
                <time>2004-09-25T06:37:19Z</time>
            </trkpt>
            <trkpt lon="101.316991" lat="14.310486">
                <ele>27.534912</ele>
                <time>2004-09-25T06:37:25Z</time>
            </trkpt>
            <trkpt lon="101.316819" lat="14.310057">
                <ele>27.054321</ele>
                <time>2004-09-25T06:37:32Z</time>
            </trkpt>
            <trkpt lon="101.316798" lat="14.309843">
                <ele>27.054321</ele>
                <time>2004-09-25T06:37:36Z</time>
            </trkpt>
            <trkpt lon="101.316798" lat="14.309714">
                <ele>27.534912</ele>
                <time>2004-09-25T06:37:38Z</time>
            </trkpt>
            <trkpt lon="101.316991" lat="14.308898">
                <ele>27.534912</ele>
                <time>2004-09-25T06:37:54Z</time>
            </trkpt>
            <trkpt lon="101.317055" lat="14.308169">
                <ele>28.976929</ele>
                <time>2004-09-25T06:38:10Z</time>
            </trkpt>
            <trkpt lon="101.317098" lat="14.307654">
                <ele>28.496216</ele>
                <time>2004-09-25T06:38:20Z</time>
            </trkpt>
            <trkpt lon="101.316991" lat="14.307504">
                <ele>27.534912</ele>
                <time>2004-09-25T06:38:25Z</time>
            </trkpt>
            <trkpt lon="101.316154" lat="14.307504">
                <ele>25.612305</ele>
                <time>2004-09-25T06:38:41Z</time>
            </trkpt>
            <trkpt lon="101.315660" lat="14.307611">
                <ele>26.573608</ele>
                <time>2004-09-25T06:38:50Z</time>
            </trkpt>
            <trkpt lon="101.315124" lat="14.307053">
                <ele>26.092896</ele>
                <time>2004-09-25T06:39:02Z</time>
            </trkpt>
            <trkpt lon="101.314330" lat="14.306002">
                <ele>23.689575</ele>
                <time>2004-09-25T06:39:22Z</time>
            </trkpt>
            <trkpt lon="101.313987" lat="14.305465">
                <ele>23.208984</ele>
                <time>2004-09-25T06:39:32Z</time>
            </trkpt>
            <trkpt lon="101.313579" lat="14.304435">
                <ele>22.728271</ele>
                <time>2004-09-25T06:39:51Z</time>
            </trkpt>
            <trkpt lon="101.313536" lat="14.304349">
                <ele>23.208984</ele>
                <time>2004-09-25T06:39:54Z</time>
            </trkpt>
            <trkpt lon="101.313643" lat="14.304307">
                <ele>23.208984</ele>
                <time>2004-09-25T06:39:59Z</time>
            </trkpt>
            <trkpt lon="101.313772" lat="14.304285">
                <ele>24.170288</ele>
                <time>2004-09-25T06:40:04Z</time>
            </trkpt>
            <trkpt lon="101.313815" lat="14.304135">
                <ele>23.689575</ele>
                <time>2004-09-25T06:40:10Z</time>
            </trkpt>
            <trkpt lon="101.313729" lat="14.303727">
                <ele>21.286377</ele>
                <time>2004-09-25T06:40:23Z</time>
            </trkpt>
            <trkpt lon="101.313708" lat="14.303577">
                <ele>20.324951</ele>
                <time>2004-09-25T06:40:34Z</time>
            </trkpt>
            <trkpt lon="101.313665" lat="14.303427">
                <ele>22.247559</ele>
                <time>2004-09-25T06:40:49Z</time>
            </trkpt>
            <trkpt lon="101.313579" lat="14.303105">
                <ele>21.766968</ele>
                <time>2004-09-25T06:41:08Z</time>
            </trkpt>
            <trkpt lon="101.313536" lat="14.302826">
                <ele>20.805664</ele>
                <time>2004-09-25T06:41:25Z</time>
            </trkpt>
            <trkpt lon="101.313493" lat="14.302590">
                <ele>22.247559</ele>
                <time>2004-09-25T06:41:39Z</time>
            </trkpt>
            <trkpt lon="101.313429" lat="14.302483">
                <ele>22.247559</ele>
                <time>2004-09-25T06:41:45Z</time>
            </trkpt>
            <trkpt lon="101.313021" lat="14.302375">
                <ele>23.208984</ele>
                <time>2004-09-25T06:42:01Z</time>
            </trkpt>
            <trkpt lon="101.312935" lat="14.302504">
                <ele>23.208984</ele>
                <time>2004-09-25T06:42:15Z</time>
            </trkpt>
            <trkpt lon="101.312935" lat="14.302461">
                <ele>21.286377</ele>
                <time>2004-09-25T06:42:46Z</time>
            </trkpt>
            <trkpt lon="101.312914" lat="14.302440">
                <ele>21.286377</ele>
                <time>2004-09-25T06:42:49Z</time>
            </trkpt>
            <trkpt lon="101.312914" lat="14.302354">
                <ele>22.728271</ele>
                <time>2004-09-25T06:43:01Z</time>
            </trkpt>
            <trkpt lon="101.312914" lat="14.302311">
                <ele>22.247559</ele>
                <time>2004-09-25T06:43:09Z</time>
            </trkpt>
            <trkpt lon="101.313021" lat="14.302268">
                <ele>19.844360</ele>
                <time>2004-09-25T06:43:21Z</time>
            </trkpt>
            <trkpt lon="101.313236" lat="14.302075">
                <ele>22.247559</ele>
                <time>2004-09-25T06:43:38Z</time>
            </trkpt>
            <trkpt lon="101.313236" lat="14.301753">
                <ele>22.247559</ele>
                <time>2004-09-25T06:43:53Z</time>
            </trkpt>
            <trkpt lon="101.313300" lat="14.301431">
                <ele>21.766968</ele>
                <time>2004-09-25T06:44:12Z</time>
            </trkpt>
            <trkpt lon="101.313386" lat="14.300959">
                <ele>24.651001</ele>
                <time>2004-09-25T06:44:42Z</time>
            </trkpt>
            <trkpt lon="101.313365" lat="14.300487">
                <ele>26.092896</ele>
                <time>2004-09-25T06:45:10Z</time>
            </trkpt>
            <trkpt lon="101.313429" lat="14.300337">
                <ele>27.054321</ele>
                <time>2004-09-25T06:45:28Z</time>
            </trkpt>
            <trkpt lon="101.313450" lat="14.300315">
                <ele>27.054321</ele>
                <time>2004-09-25T06:45:32Z</time>
            </trkpt>
            <trkpt lon="101.313493" lat="14.300272">
                <ele>27.054321</ele>
                <time>2004-09-25T06:45:36Z</time>
            </trkpt>
            <trkpt lon="101.313665" lat="14.300101">
                <ele>26.573608</ele>
                <time>2004-09-25T06:45:52Z</time>
            </trkpt>
            <trkpt lon="101.313686" lat="14.299865">
                <ele>24.651001</ele>
                <time>2004-09-25T06:46:06Z</time>
            </trkpt>
            <trkpt lon="101.313686" lat="14.299822">
                <ele>23.689575</ele>
                <time>2004-09-25T06:46:31Z</time>
            </trkpt>
            <trkpt lon="101.313686" lat="14.299822">
                <ele>35.225464</ele>
                <time>2004-09-25T06:47:10Z</time>
            </trkpt>
            <trkpt lon="101.313708" lat="14.299822">
                <ele>34.744873</ele>
                <time>2004-09-25T06:47:12Z</time>
            </trkpt>
            <trkpt lon="101.313965" lat="14.299822">
                <ele>31.380127</ele>
                <time>2004-09-25T06:47:35Z</time>
            </trkpt>
            <trkpt lon="101.314030" lat="14.299779">
                <ele>31.380127</ele>
                <time>2004-09-25T06:47:58Z</time>
            </trkpt>
            <trkpt lon="101.314030" lat="14.299800">
                <ele>30.418823</ele>
                <time>2004-09-25T06:48:10Z</time>
            </trkpt>
            <trkpt lon="101.313987" lat="14.299822">
                <ele>30.899536</ele>
                <time>2004-09-25T06:48:16Z</time>
            </trkpt>
            <trkpt lon="101.313729" lat="14.299908">
                <ele>28.015503</ele>
                <time>2004-09-25T06:48:37Z</time>
            </trkpt>
            <trkpt lon="101.313686" lat="14.299951">
                <ele>28.496216</ele>
                <time>2004-09-25T06:48:40Z</time>
            </trkpt>
            <trkpt lon="101.313579" lat="14.300144">
                <ele>28.015503</ele>
                <time>2004-09-25T06:48:50Z</time>
            </trkpt>
            <trkpt lon="101.313365" lat="14.300230">
                <ele>27.534912</ele>
                <time>2004-09-25T06:49:00Z</time>
            </trkpt>
            <trkpt lon="101.313322" lat="14.300272">
                <ele>27.534912</ele>
                <time>2004-09-25T06:49:10Z</time>
            </trkpt>
            <trkpt lon="101.313279" lat="14.300315">
                <ele>27.534912</ele>
                <time>2004-09-25T06:49:14Z</time>
            </trkpt>
            <trkpt lon="101.313257" lat="14.300680">
                <ele>27.534912</ele>
                <time>2004-09-25T06:49:36Z</time>
            </trkpt>
            <trkpt lon="101.313300" lat="14.300766">
                <ele>29.938110</ele>
                <time>2004-09-25T06:50:01Z</time>
            </trkpt>
            <trkpt lon="101.313257" lat="14.301023">
                <ele>29.938110</ele>
                <time>2004-09-25T06:50:22Z</time>
            </trkpt>
            <trkpt lon="101.313322" lat="14.301066">
                <ele>25.612305</ele>
                <time>2004-09-25T06:51:14Z</time>
            </trkpt>
            <trkpt lon="101.313365" lat="14.300959">
                <ele>24.170288</ele>
                <time>2004-09-25T06:51:41Z</time>
            </trkpt>
            <trkpt lon="101.313322" lat="14.300508">
                <ele>23.689575</ele>
                <time>2004-09-25T06:52:09Z</time>
            </trkpt>
            <trkpt lon="101.313322" lat="14.300337">
                <ele>30.418823</ele>
                <time>2004-09-25T06:52:28Z</time>
            </trkpt>
            <trkpt lon="101.313343" lat="14.300272">
                <ele>30.899536</ele>
                <time>2004-09-25T06:52:44Z</time>
            </trkpt>
            <trkpt lon="101.313558" lat="14.299951">
                <ele>30.418823</ele>
                <time>2004-09-25T06:53:03Z</time>
            </trkpt>
            <trkpt lon="101.313601" lat="14.299800">
                <ele>30.418823</ele>
                <time>2004-09-25T06:53:15Z</time>
            </trkpt>
            <trkpt lon="101.313708" lat="14.299650">
                <ele>28.496216</ele>
                <time>2004-09-25T06:53:31Z</time>
            </trkpt>
            <trkpt lon="101.313965" lat="14.299500">
                <ele>26.092896</ele>
                <time>2004-09-25T06:53:49Z</time>
            </trkpt>
            <trkpt lon="101.314373" lat="14.299414">
                <ele>28.015503</ele>
                <time>2004-09-25T06:54:10Z</time>
            </trkpt>
            <trkpt lon="101.314609" lat="14.299350">
                <ele>28.976929</ele>
                <time>2004-09-25T06:54:25Z</time>
            </trkpt>
            <trkpt lon="101.314824" lat="14.299157">
                <ele>26.092896</ele>
                <time>2004-09-25T06:54:41Z</time>
            </trkpt>
            <trkpt lon="101.315103" lat="14.299071">
                <ele>27.054321</ele>
                <time>2004-09-25T06:54:56Z</time>
            </trkpt>
            <trkpt lon="101.315145" lat="14.299071">
                <ele>27.054321</ele>
                <time>2004-09-25T06:54:59Z</time>
            </trkpt>
            <trkpt lon="101.315296" lat="14.299307">
                <ele>28.496216</ele>
                <time>2004-09-25T06:55:14Z</time>
            </trkpt>
            <trkpt lon="101.315403" lat="14.299436">
                <ele>27.534912</ele>
                <time>2004-09-25T06:55:26Z</time>
            </trkpt>
            <trkpt lon="101.315510" lat="14.299543">
                <ele>27.534912</ele>
                <time>2004-09-25T06:55:42Z</time>
            </trkpt>
            <trkpt lon="101.315510" lat="14.299521">
                <ele>27.534912</ele>
                <time>2004-09-25T06:55:46Z</time>
            </trkpt>
            <trkpt lon="101.315403" lat="14.299371">
                <ele>27.054321</ele>
                <time>2004-09-25T06:55:51Z</time>
            </trkpt>
            <trkpt lon="101.314931" lat="14.298685">
                <ele>27.054321</ele>
                <time>2004-09-25T06:56:07Z</time>
            </trkpt>
            <trkpt lon="101.314588" lat="14.298170">
                <ele>26.092896</ele>
                <time>2004-09-25T06:56:18Z</time>
            </trkpt>
            <trkpt lon="101.314394" lat="14.297891">
                <ele>26.092896</ele>
                <time>2004-09-25T06:56:25Z</time>
            </trkpt>
            <trkpt lon="101.314437" lat="14.297590">
                <ele>26.092896</ele>
                <time>2004-09-25T06:56:34Z</time>
            </trkpt>
            <trkpt lon="101.315060" lat="14.297118">
                <ele>28.015503</ele>
                <time>2004-09-25T06:56:50Z</time>
            </trkpt>
            <trkpt lon="101.315832" lat="14.296517">
                <ele>30.418823</ele>
                <time>2004-09-25T06:57:08Z</time>
            </trkpt>
            <trkpt lon="101.316669" lat="14.295938">
                <ele>31.380127</ele>
                <time>2004-09-25T06:57:25Z</time>
            </trkpt>
            <trkpt lon="101.317377" lat="14.295487">
                <ele>31.860718</ele>
                <time>2004-09-25T06:57:42Z</time>
            </trkpt>
            <trkpt lon="101.317956" lat="14.295144">
                <ele>32.341553</ele>
                <time>2004-09-25T06:57:56Z</time>
            </trkpt>
            <trkpt lon="101.318300" lat="14.295015">
                <ele>33.302856</ele>
                <time>2004-09-25T06:58:04Z</time>
            </trkpt>
            <trkpt lon="101.318579" lat="14.294758">
                <ele>34.264160</ele>
                <time>2004-09-25T06:58:15Z</time>
            </trkpt>
            <trkpt lon="101.318665" lat="14.294758">
                <ele>36.186768</ele>
                <time>2004-09-25T06:58:28Z</time>
            </trkpt>
            <trkpt lon="101.318622" lat="14.294758">
                <ele>38.109375</ele>
                <time>2004-09-25T07:03:06Z</time>
            </trkpt>
            <trkpt lon="101.318471" lat="14.294436">
                <ele>37.628662</ele>
                <time>2004-09-25T07:03:18Z</time>
            </trkpt>
            <trkpt lon="101.318386" lat="14.294221">
                <ele>36.667480</ele>
                <time>2004-09-25T07:03:23Z</time>
            </trkpt>
            <trkpt lon="101.318257" lat="14.294071">
                <ele>36.667480</ele>
                <time>2004-09-25T07:03:27Z</time>
            </trkpt>
            <trkpt lon="101.318064" lat="14.293900">
                <ele>37.148071</ele>
                <time>2004-09-25T07:03:37Z</time>
            </trkpt>
            <trkpt lon="101.318107" lat="14.293857">
                <ele>37.148071</ele>
                <time>2004-09-25T07:03:39Z</time>
            </trkpt>
            <trkpt lon="101.318471" lat="14.293256">
                <ele>38.590088</ele>
                <time>2004-09-25T07:03:55Z</time>
            </trkpt>
            <trkpt lon="101.319072" lat="14.292655">
                <ele>39.551270</ele>
                <time>2004-09-25T07:04:15Z</time>
            </trkpt>
            <trkpt lon="101.319609" lat="14.292312">
                <ele>38.109375</ele>
                <time>2004-09-25T07:04:34Z</time>
            </trkpt>
            <trkpt lon="101.319716" lat="14.292312">
                <ele>37.628662</ele>
                <time>2004-09-25T07:04:50Z</time>
            </trkpt>
            <trkpt lon="101.319695" lat="14.292333">
                <ele>35.225464</ele>
                <time>2004-09-25T07:05:23Z</time>
            </trkpt>
            <trkpt lon="101.319673" lat="14.292355">
                <ele>36.667480</ele>
                <time>2004-09-25T07:06:24Z</time>
            </trkpt>
            <trkpt lon="101.319652" lat="14.286711">
                <ele>52.048584</ele>
                <time>2004-09-25T07:17:24Z</time>
            </trkpt>
            <trkpt lon="101.319630" lat="14.286690">
                <ele>52.048584</ele>
                <time>2004-09-25T07:17:26Z</time>
            </trkpt>
            <trkpt lon="101.319544" lat="14.286647">
                <ele>68.390869</ele>
                <time>2004-09-25T07:17:46Z</time>
            </trkpt>
            <trkpt lon="101.319437" lat="14.286604">
                <ele>72.716919</ele>
                <time>2004-09-25T07:18:19Z</time>
            </trkpt>
            <trkpt lon="101.319351" lat="14.286582">
                <ele>72.716919</ele>
                <time>2004-09-25T07:18:52Z</time>
            </trkpt>
            <trkpt lon="101.319180" lat="14.286625">
                <ele>71.274902</ele>
                <time>2004-09-25T07:19:17Z</time>
            </trkpt>
            <trkpt lon="101.319008" lat="14.286711">
                <ele>62.142334</ele>
                <time>2004-09-25T07:19:59Z</time>
            </trkpt>
            <trkpt lon="101.318901" lat="14.286711">
                <ele>61.661743</ele>
                <time>2004-09-25T07:20:22Z</time>
            </trkpt>
            <trkpt lon="101.318643" lat="14.286776">
                <ele>59.739136</ele>
                <time>2004-09-25T07:21:03Z</time>
            </trkpt>
            <trkpt lon="101.318407" lat="14.286754">
                <ele>59.739136</ele>
                <time>2004-09-25T07:21:35Z</time>
            </trkpt>
            <trkpt lon="101.318257" lat="14.286776">
                <ele>58.297119</ele>
                <time>2004-09-25T07:21:56Z</time>
            </trkpt>
            <trkpt lon="101.318150" lat="14.286776">
                <ele>58.297119</ele>
                <time>2004-09-25T07:22:07Z</time>
            </trkpt>
            <trkpt lon="101.317699" lat="14.286883">
                <ele>58.297119</ele>
                <time>2004-09-25T07:22:33Z</time>
            </trkpt>
            <trkpt lon="101.317356" lat="14.287033">
                <ele>58.297119</ele>
                <time>2004-09-25T07:22:51Z</time>
            </trkpt>
            <trkpt lon="101.317098" lat="14.287248">
                <ele>58.297119</ele>
                <time>2004-09-25T07:23:07Z</time>
            </trkpt>
            <trkpt lon="101.316991" lat="14.287355">
                <ele>58.297119</ele>
                <time>2004-09-25T07:23:13Z</time>
            </trkpt>
            <trkpt lon="101.316948" lat="14.287376">
                <ele>58.297119</ele>
                <time>2004-09-25T07:23:26Z</time>
            </trkpt>
            <trkpt lon="101.316905" lat="14.287398">
                <ele>57.816528</ele>
                <time>2004-09-25T07:24:11Z</time>
            </trkpt>
            <trkpt lon="101.316884" lat="14.287398">
                <ele>57.816528</ele>
                <time>2004-09-25T07:24:12Z</time>
            </trkpt>
            <trkpt lon="101.316819" lat="14.287419">
                <ele>57.816528</ele>
                <time>2004-09-25T07:24:19Z</time>
            </trkpt>
            <trkpt lon="101.316776" lat="14.287376">
                <ele>54.932373</ele>
                <time>2004-09-25T07:24:24Z</time>
            </trkpt>
            <trkpt lon="101.317034" lat="14.287119">
                <ele>48.683960</ele>
                <time>2004-09-25T07:24:36Z</time>
            </trkpt>
            <trkpt lon="101.317163" lat="14.287012">
                <ele>46.761230</ele>
                <time>2004-09-25T07:24:40Z</time>
            </trkpt>
            <trkpt lon="101.317570" lat="14.286411">
                <ele>40.993408</ele>
                <time>2004-09-25T07:24:55Z</time>
            </trkpt>
            <trkpt lon="101.317871" lat="14.285638">
                <ele>37.628662</ele>
                <time>2004-09-25T07:25:10Z</time>
            </trkpt>
            <trkpt lon="101.318042" lat="14.284480">
                <ele>34.744873</ele>
                <time>2004-09-25T07:25:30Z</time>
            </trkpt>
            <trkpt lon="101.318042" lat="14.284308">
                <ele>34.264160</ele>
                <time>2004-09-25T07:25:33Z</time>
            </trkpt>
            <trkpt lon="101.318171" lat="14.283299">
                <ele>33.783447</ele>
                <time>2004-09-25T07:25:51Z</time>
            </trkpt>
            <trkpt lon="101.318192" lat="14.283192">
                <ele>33.302856</ele>
                <time>2004-09-25T07:25:53Z</time>
            </trkpt>
            <trkpt lon="101.318214" lat="14.283020">
                <ele>33.302856</ele>
                <time>2004-09-25T07:25:56Z</time>
            </trkpt>
            <trkpt lon="101.318343" lat="14.282076">
                <ele>33.783447</ele>
                <time>2004-09-25T07:26:13Z</time>
            </trkpt>
            <trkpt lon="101.318235" lat="14.281197">
                <ele>33.302856</ele>
                <time>2004-09-25T07:26:29Z</time>
            </trkpt>
            <trkpt lon="101.317828" lat="14.280446">
                <ele>33.302856</ele>
                <time>2004-09-25T07:26:43Z</time>
            </trkpt>
            <trkpt lon="101.317291" lat="14.279866">
                <ele>33.783447</ele>
                <time>2004-09-25T07:26:57Z</time>
            </trkpt>
            <trkpt lon="101.317163" lat="14.279759">
                <ele>34.264160</ele>
                <time>2004-09-25T07:27:00Z</time>
            </trkpt>
            <trkpt lon="101.316755" lat="14.279394">
                <ele>34.744873</ele>
                <time>2004-09-25T07:27:10Z</time>
            </trkpt>
            <trkpt lon="101.316605" lat="14.279029">
                <ele>34.744873</ele>
                <time>2004-09-25T07:27:17Z</time>
            </trkpt>
            <trkpt lon="101.316648" lat="14.278772">
                <ele>33.783447</ele>
                <time>2004-09-25T07:27:22Z</time>
            </trkpt>
            <trkpt lon="101.316690" lat="14.278643">
                <ele>34.264160</ele>
                <time>2004-09-25T07:27:31Z</time>
            </trkpt>
            <trkpt lon="101.316669" lat="14.278622">
                <ele>34.744873</ele>
                <time>2004-09-25T07:27:44Z</time>
            </trkpt>
            <trkpt lon="101.316690" lat="14.278600">
                <ele>35.706055</ele>
                <time>2004-09-25T07:28:17Z</time>
            </trkpt>
            <trkpt lon="101.316862" lat="14.278321">
                <ele>32.822266</ele>
                <time>2004-09-25T07:28:29Z</time>
            </trkpt>
            <trkpt lon="101.317034" lat="14.278021">
                <ele>32.341553</ele>
                <time>2004-09-25T07:28:39Z</time>
            </trkpt>
            <trkpt lon="101.316926" lat="14.277956">
                <ele>29.457520</ele>
                <time>2004-09-25T07:28:48Z</time>
            </trkpt>
            <trkpt lon="101.316884" lat="14.277956">
                <ele>28.976929</ele>
                <time>2004-09-25T07:28:50Z</time>
            </trkpt>
            <trkpt lon="101.316240" lat="14.278064">
                <ele>28.015503</ele>
                <time>2004-09-25T07:29:03Z</time>
            </trkpt>
            <trkpt lon="101.315982" lat="14.278171">
                <ele>28.976929</ele>
                <time>2004-09-25T07:29:13Z</time>
            </trkpt>
            <trkpt lon="101.315939" lat="14.278257">
                <ele>27.054321</ele>
                <time>2004-09-25T07:29:26Z</time>
            </trkpt>
            <trkpt lon="101.315939" lat="14.278300">
                <ele>24.170288</ele>
                <time>2004-09-25T07:29:50Z</time>
            </trkpt>
            <trkpt lon="101.315789" lat="14.278364">
                <ele>23.689575</ele>
                <time>2004-09-25T07:30:03Z</time>
            </trkpt>
            <trkpt lon="101.315682" lat="14.278364">
                <ele>23.208984</ele>
                <time>2004-09-25T07:30:15Z</time>
            </trkpt>
            <trkpt lon="101.315489" lat="14.278364">
                <ele>22.728271</ele>
                <time>2004-09-25T07:30:29Z</time>
            </trkpt>
            <trkpt lon="101.315060" lat="14.278429">
                <ele>22.247559</ele>
                <time>2004-09-25T07:30:51Z</time>
            </trkpt>
            <trkpt lon="101.314952" lat="14.278407">
                <ele>22.728271</ele>
                <time>2004-09-25T07:31:02Z</time>
            </trkpt>
            <trkpt lon="101.314974" lat="14.278450">
                <ele>23.208984</ele>
                <time>2004-09-25T07:31:23Z</time>
            </trkpt>
            <trkpt lon="101.314995" lat="14.278450">
                <ele>24.651001</ele>
                <time>2004-09-25T07:33:04Z</time>
            </trkpt>
            <trkpt lon="101.314952" lat="14.278471">
                <ele>23.689575</ele>
                <time>2004-09-25T07:33:09Z</time>
            </trkpt>
            <trkpt lon="101.314909" lat="14.278471">
                <ele>23.689575</ele>
                <time>2004-09-25T07:33:28Z</time>
            </trkpt>
            <trkpt lon="101.314888" lat="14.278450">
                <ele>22.247559</ele>
                <time>2004-09-25T07:33:54Z</time>
            </trkpt>
            <trkpt lon="101.314824" lat="14.278471">
                <ele>22.247559</ele>
                <time>2004-09-25T07:34:42Z</time>
            </trkpt>
            <trkpt lon="101.314802" lat="14.278471">
                <ele>21.766968</ele>
                <time>2004-09-25T07:34:46Z</time>
            </trkpt>
            <trkpt lon="101.314566" lat="14.278514">
                <ele>22.728271</ele>
                <time>2004-09-25T07:35:03Z</time>
            </trkpt>
            <trkpt lon="101.314502" lat="14.278514">
                <ele>22.728271</ele>
                <time>2004-09-25T07:35:10Z</time>
            </trkpt>
            <trkpt lon="101.314244" lat="14.278557">
                <ele>24.170288</ele>
                <time>2004-09-25T07:35:29Z</time>
            </trkpt>
            <trkpt lon="101.314180" lat="14.278557">
                <ele>22.247559</ele>
                <time>2004-09-25T07:35:44Z</time>
            </trkpt>
            <trkpt lon="101.314158" lat="14.278557">
                <ele>21.766968</ele>
                <time>2004-09-25T07:36:02Z</time>
            </trkpt>
            <trkpt lon="101.314116" lat="14.278557">
                <ele>19.844360</ele>
                <time>2004-09-25T07:36:18Z</time>
            </trkpt>
            <trkpt lon="101.314116" lat="14.278557">
                <ele>20.324951</ele>
                <time>2004-09-25T07:36:34Z</time>
            </trkpt>
            <trkpt lon="101.314030" lat="14.278557">
                <ele>20.805664</ele>
                <time>2004-09-25T07:36:49Z</time>
            </trkpt>
            <trkpt lon="101.313837" lat="14.278579">
                <ele>21.286377</ele>
                <time>2004-09-25T07:37:05Z</time>
            </trkpt>
            <trkpt lon="101.313536" lat="14.278622">
                <ele>21.286377</ele>
                <time>2004-09-25T07:37:23Z</time>
            </trkpt>
            <trkpt lon="101.313386" lat="14.278622">
                <ele>21.286377</ele>
                <time>2004-09-25T07:37:37Z</time>
            </trkpt>
            <trkpt lon="101.313386" lat="14.278622">
                <ele>20.805664</ele>
                <time>2004-09-25T07:37:54Z</time>
            </trkpt>
            <trkpt lon="101.313322" lat="14.278665">
                <ele>19.844360</ele>
                <time>2004-09-25T07:38:05Z</time>
            </trkpt>
            <trkpt lon="101.313300" lat="14.278665">
                <ele>19.363770</ele>
                <time>2004-09-25T07:38:17Z</time>
            </trkpt>
            <trkpt lon="101.313128" lat="14.278729">
                <ele>19.363770</ele>
                <time>2004-09-25T07:40:02Z</time>
            </trkpt>
            <trkpt lon="101.312785" lat="14.278879">
                <ele>18.883057</ele>
                <time>2004-09-25T07:40:15Z</time>
            </trkpt>
            <trkpt lon="101.312764" lat="14.278750">
                <ele>18.883057</ele>
                <time>2004-09-25T07:40:20Z</time>
            </trkpt>
            <trkpt lon="101.312549" lat="14.278278">
                <ele>19.363770</ele>
                <time>2004-09-25T07:40:34Z</time>
            </trkpt>
            <trkpt lon="101.312528" lat="14.278235">
                <ele>18.883057</ele>
                <time>2004-09-25T07:40:35Z</time>
            </trkpt>
            <trkpt lon="101.312099" lat="14.277806">
                <ele>17.441162</ele>
                <time>2004-09-25T07:40:48Z</time>
            </trkpt>
            <trkpt lon="101.312013" lat="14.277613">
                <ele>17.441162</ele>
                <time>2004-09-25T07:40:52Z</time>
            </trkpt>
            <trkpt lon="101.311927" lat="14.277270">
                <ele>17.921753</ele>
                <time>2004-09-25T07:40:59Z</time>
            </trkpt>
            <trkpt lon="101.311734" lat="14.277055">
                <ele>17.921753</ele>
                <time>2004-09-25T07:41:05Z</time>
            </trkpt>
            <trkpt lon="101.310918" lat="14.276583">
                <ele>17.921753</ele>
                <time>2004-09-25T07:41:23Z</time>
            </trkpt>
            <trkpt lon="101.310661" lat="14.276519">
                <ele>17.921753</ele>
                <time>2004-09-25T07:41:28Z</time>
            </trkpt>
            <trkpt lon="101.310489" lat="14.276304">
                <ele>18.883057</ele>
                <time>2004-09-25T07:41:34Z</time>
            </trkpt>
            <trkpt lon="101.310232" lat="14.275703">
                <ele>18.883057</ele>
                <time>2004-09-25T07:41:49Z</time>
            </trkpt>
            <trkpt lon="101.309717" lat="14.275231">
                <ele>18.402344</ele>
                <time>2004-09-25T07:42:04Z</time>
            </trkpt>
            <trkpt lon="101.309116" lat="14.274631">
                <ele>17.921753</ele>
                <time>2004-09-25T07:42:21Z</time>
            </trkpt>
            <trkpt lon="101.308730" lat="14.274073">
                <ele>18.402344</ele>
                <time>2004-09-25T07:42:35Z</time>
            </trkpt>
            <trkpt lon="101.308193" lat="14.273322">
                <ele>17.921753</ele>
                <time>2004-09-25T07:42:54Z</time>
            </trkpt>
            <trkpt lon="101.308022" lat="14.273150">
                <ele>18.883057</ele>
                <time>2004-09-25T07:42:59Z</time>
            </trkpt>
            <trkpt lon="101.307828" lat="14.273043">
                <ele>18.402344</ele>
                <time>2004-09-25T07:43:03Z</time>
            </trkpt>
            <trkpt lon="101.307549" lat="14.272978">
                <ele>17.921753</ele>
                <time>2004-09-25T07:43:08Z</time>
            </trkpt>
            <trkpt lon="101.306412" lat="14.272721">
                <ele>17.921753</ele>
                <time>2004-09-25T07:43:28Z</time>
            </trkpt>
            <trkpt lon="101.305447" lat="14.272420">
                <ele>17.921753</ele>
                <time>2004-09-25T07:43:45Z</time>
            </trkpt>
            <trkpt lon="101.304481" lat="14.272013">
                <ele>17.441162</ele>
                <time>2004-09-25T07:44:03Z</time>
            </trkpt>
            <trkpt lon="101.304417" lat="14.271991">
                <ele>17.441162</ele>
                <time>2004-09-25T07:44:04Z</time>
            </trkpt>
            <trkpt lon="101.304266" lat="14.271905">
                <ele>16.960449</ele>
                <time>2004-09-25T07:44:07Z</time>
            </trkpt>
            <trkpt lon="101.304309" lat="14.271626">
                <ele>16.960449</ele>
                <time>2004-09-25T07:44:13Z</time>
            </trkpt>
            <trkpt lon="101.304524" lat="14.270833">
                <ele>17.441162</ele>
                <time>2004-09-25T07:44:29Z</time>
            </trkpt>
            <trkpt lon="101.304631" lat="14.270360">
                <ele>18.402344</ele>
                <time>2004-09-25T07:44:40Z</time>
            </trkpt>
            <trkpt lon="101.304545" lat="14.270210">
                <ele>19.363770</ele>
                <time>2004-09-25T07:44:46Z</time>
            </trkpt>
            <trkpt lon="101.304524" lat="14.270189">
                <ele>19.844360</ele>
                <time>2004-09-25T07:44:59Z</time>
            </trkpt>
            <trkpt lon="101.304524" lat="14.270189">
                <ele>19.844360</ele>
                <time>2004-09-25T07:45:01Z</time>
            </trkpt>
            <trkpt lon="101.304181" lat="14.270253">
                <ele>19.363770</ele>
                <time>2004-09-25T07:45:13Z</time>
            </trkpt>
            <trkpt lon="101.303236" lat="14.270446">
                <ele>18.402344</ele>
                <time>2004-09-25T07:45:31Z</time>
            </trkpt>
            <trkpt lon="101.302335" lat="14.270639">
                <ele>18.402344</ele>
                <time>2004-09-25T07:45:49Z</time>
            </trkpt>
            <trkpt lon="101.301241" lat="14.270918">
                <ele>18.402344</ele>
                <time>2004-09-25T07:46:08Z</time>
            </trkpt>
            <trkpt lon="101.299846" lat="14.271283">
                <ele>17.441162</ele>
                <time>2004-09-25T07:46:31Z</time>
            </trkpt>
            <trkpt lon="101.299653" lat="14.271326">
                <ele>16.960449</ele>
                <time>2004-09-25T07:46:35Z</time>
            </trkpt>
            <trkpt lon="101.299503" lat="14.271176">
                <ele>17.441162</ele>
                <time>2004-09-25T07:46:42Z</time>
            </trkpt>
            <trkpt lon="101.299524" lat="14.270940">
                <ele>18.402344</ele>
                <time>2004-09-25T07:46:47Z</time>
            </trkpt>
            <trkpt lon="101.299567" lat="14.270768">
                <ele>18.402344</ele>
                <time>2004-09-25T07:46:51Z</time>
            </trkpt>
            <trkpt lon="101.299696" lat="14.270468">
                <ele>17.441162</ele>
                <time>2004-09-25T07:46:58Z</time>
            </trkpt>
            <trkpt lon="101.299846" lat="14.270232">
                <ele>16.960449</ele>
                <time>2004-09-25T07:47:04Z</time>
            </trkpt>
            <trkpt lon="101.300147" lat="14.269845">
                <ele>17.921753</ele>
                <time>2004-09-25T07:47:14Z</time>
            </trkpt>
            <trkpt lon="101.300189" lat="14.269609">
                <ele>17.921753</ele>
                <time>2004-09-25T07:47:19Z</time>
            </trkpt>
            <trkpt lon="101.300125" lat="14.268773">
                <ele>17.441162</ele>
                <time>2004-09-25T07:47:35Z</time>
            </trkpt>
            <trkpt lon="101.300125" lat="14.268708">
                <ele>16.960449</ele>
                <time>2004-09-25T07:47:36Z</time>
            </trkpt>
            <trkpt lon="101.300211" lat="14.268386">
                <ele>16.960449</ele>
                <time>2004-09-25T07:47:43Z</time>
            </trkpt>
            <trkpt lon="101.300726" lat="14.267571">
                <ele>15.999023</ele>
                <time>2004-09-25T07:48:03Z</time>
            </trkpt>
            <trkpt lon="101.301134" lat="14.267056">
                <ele>15.518433</ele>
                <time>2004-09-25T07:48:18Z</time>
            </trkpt>
            <trkpt lon="101.301391" lat="14.266863">
                <ele>15.037720</ele>
                <time>2004-09-25T07:48:25Z</time>
            </trkpt>
            <trkpt lon="101.302249" lat="14.266391">
                <ele>15.518433</ele>
                <time>2004-09-25T07:48:44Z</time>
            </trkpt>
            <trkpt lon="101.302958" lat="14.265919">
                <ele>15.999023</ele>
                <time>2004-09-25T07:49:02Z</time>
            </trkpt>
            <trkpt lon="101.303365" lat="14.265683">
                <ele>16.960449</ele>
                <time>2004-09-25T07:49:12Z</time>
            </trkpt>
            <trkpt lon="101.303430" lat="14.265490">
                <ele>16.960449</ele>
                <time>2004-09-25T07:49:17Z</time>
            </trkpt>
            <trkpt lon="101.303408" lat="14.264953">
                <ele>17.921753</ele>
                <time>2004-09-25T07:49:31Z</time>
            </trkpt>
            <trkpt lon="101.303473" lat="14.264889">
                <ele>18.402344</ele>
                <time>2004-09-25T07:49:33Z</time>
            </trkpt>
            <trkpt lon="101.303923" lat="14.264545">
                <ele>17.921753</ele>
                <time>2004-09-25T07:49:46Z</time>
            </trkpt>
            <trkpt lon="101.304052" lat="14.264331">
                <ele>19.363770</ele>
                <time>2004-09-25T07:49:55Z</time>
            </trkpt>
            <trkpt lon="101.304095" lat="14.264309">
                <ele>19.363770</ele>
                <time>2004-09-25T07:49:58Z</time>
            </trkpt>
            <trkpt lon="101.304266" lat="14.264245">
                <ele>19.363770</ele>
                <time>2004-09-25T07:50:14Z</time>
            </trkpt>
            <trkpt lon="101.304395" lat="14.264159">
                <ele>18.883057</ele>
                <time>2004-09-25T07:50:22Z</time>
            </trkpt>
            <trkpt lon="101.304417" lat="14.263902">
                <ele>20.324951</ele>
                <time>2004-09-25T07:50:39Z</time>
            </trkpt>
            <trkpt lon="101.304352" lat="14.263709">
                <ele>17.921753</ele>
                <time>2004-09-25T07:50:57Z</time>
            </trkpt>
            <trkpt lon="101.304460" lat="14.263601">
                <ele>19.844360</ele>
                <time>2004-09-25T07:51:18Z</time>
            </trkpt>
            <trkpt lon="101.304481" lat="14.263580">
                <ele>19.844360</ele>
                <time>2004-09-25T07:51:21Z</time>
            </trkpt>
            <trkpt lon="101.304502" lat="14.263537">
                <ele>24.170288</ele>
                <time>2004-09-25T07:51:37Z</time>
            </trkpt>
            <trkpt lon="101.304460" lat="14.263558">
                <ele>24.170288</ele>
                <time>2004-09-25T07:51:46Z</time>
            </trkpt>
            <trkpt lon="101.304224" lat="14.263387">
                <ele>25.131714</ele>
                <time>2004-09-25T07:51:59Z</time>
            </trkpt>
            <trkpt lon="101.304266" lat="14.263000">
                <ele>26.092896</ele>
                <time>2004-09-25T07:52:10Z</time>
            </trkpt>
            <trkpt lon="101.304781" lat="14.262249">
                <ele>25.612305</ele>
                <time>2004-09-25T07:52:30Z</time>
            </trkpt>
            <trkpt lon="101.305039" lat="14.261541">
                <ele>26.573608</ele>
                <time>2004-09-25T07:52:47Z</time>
            </trkpt>
            <trkpt lon="101.305318" lat="14.260662">
                <ele>24.651001</ele>
                <time>2004-09-25T07:53:06Z</time>
            </trkpt>
            <trkpt lon="101.305618" lat="14.259739">
                <ele>25.612305</ele>
                <time>2004-09-25T07:53:26Z</time>
            </trkpt>
            <trkpt lon="101.305661" lat="14.259374">
                <ele>25.612305</ele>
                <time>2004-09-25T07:53:33Z</time>
            </trkpt>
            <trkpt lon="101.305640" lat="14.259267">
                <ele>25.131714</ele>
                <time>2004-09-25T07:53:35Z</time>
            </trkpt>
            <trkpt lon="101.305103" lat="14.258451">
                <ele>26.573608</ele>
                <time>2004-09-25T07:53:54Z</time>
            </trkpt>
            <trkpt lon="101.304481" lat="14.257636">
                <ele>27.534912</ele>
                <time>2004-09-25T07:54:14Z</time>
            </trkpt>
            <trkpt lon="101.303880" lat="14.257336">
                <ele>27.054321</ele>
                <time>2004-09-25T07:54:27Z</time>
            </trkpt>
            <trkpt lon="101.303687" lat="14.257336">
                <ele>27.054321</ele>
                <time>2004-09-25T07:54:31Z</time>
            </trkpt>
            <trkpt lon="101.303344" lat="14.257379">
                <ele>28.015503</ele>
                <time>2004-09-25T07:54:40Z</time>
            </trkpt>
            <trkpt lon="101.303279" lat="14.257228">
                <ele>28.015503</ele>
                <time>2004-09-25T07:54:50Z</time>
            </trkpt>
            <trkpt lon="101.303301" lat="14.257057">
                <ele>31.860718</ele>
                <time>2004-09-25T07:55:09Z</time>
            </trkpt>
            <trkpt lon="101.303279" lat="14.256821">
                <ele>32.822266</ele>
                <time>2004-09-25T07:55:31Z</time>
            </trkpt>
            <trkpt lon="101.303194" lat="14.256606">
                <ele>32.822266</ele>
                <time>2004-09-25T07:55:53Z</time>
            </trkpt>
            <trkpt lon="101.302958" lat="14.256392">
                <ele>34.744873</ele>
                <time>2004-09-25T07:56:21Z</time>
            </trkpt>
            <trkpt lon="101.302893" lat="14.256349">
                <ele>34.744873</ele>
                <time>2004-09-25T07:56:27Z</time>
            </trkpt>
            <trkpt lon="101.302593" lat="14.256134">
                <ele>37.628662</ele>
                <time>2004-09-25T07:56:44Z</time>
            </trkpt>
            <trkpt lon="101.302314" lat="14.255705">
                <ele>40.993408</ele>
                <time>2004-09-25T07:57:03Z</time>
            </trkpt>
            <trkpt lon="101.302357" lat="14.255061">
                <ele>41.954712</ele>
                <time>2004-09-25T07:57:22Z</time>
            </trkpt>
            <trkpt lon="101.302249" lat="14.254203">
                <ele>42.435425</ele>
                <time>2004-09-25T07:57:44Z</time>
            </trkpt>
            <trkpt lon="101.301970" lat="14.253237">
                <ele>41.473999</ele>
                <time>2004-09-25T07:58:05Z</time>
            </trkpt>
            <trkpt lon="101.301584" lat="14.251606">
                <ele>39.070679</ele>
                <time>2004-09-25T07:58:32Z</time>
            </trkpt>
            <trkpt lon="101.301262" lat="14.250383">
                <ele>33.783447</ele>
                <time>2004-09-25T07:58:53Z</time>
            </trkpt>
            <trkpt lon="101.301198" lat="14.250169">
                <ele>31.860718</ele>
                <time>2004-09-25T07:59:05Z</time>
            </trkpt>
            <trkpt lon="101.301219" lat="14.250104">
                <ele>31.380127</ele>
                <time>2004-09-25T07:59:10Z</time>
            </trkpt>
            <trkpt lon="101.301177" lat="14.250062">
                <ele>30.418823</ele>
                <time>2004-09-25T07:59:14Z</time>
            </trkpt>
            <trkpt lon="101.300941" lat="14.250040">
                <ele>27.534912</ele>
                <time>2004-09-25T07:59:24Z</time>
            </trkpt>
            <trkpt lon="101.300297" lat="14.249997">
                <ele>26.092896</ele>
                <time>2004-09-25T07:59:35Z</time>
            </trkpt>
            <trkpt lon="101.299009" lat="14.249890">
                <ele>22.247559</ele>
                <time>2004-09-25T07:59:57Z</time>
            </trkpt>
            <trkpt lon="101.298344" lat="14.249825">
                <ele>20.805664</ele>
                <time>2004-09-25T08:00:08Z</time>
            </trkpt>
            <trkpt lon="101.298172" lat="14.249954">
                <ele>20.324951</ele>
                <time>2004-09-25T08:00:14Z</time>
            </trkpt>
            <trkpt lon="101.298280" lat="14.250512">
                <ele>18.883057</ele>
                <time>2004-09-25T08:00:35Z</time>
            </trkpt>
            <trkpt lon="101.298430" lat="14.251027">
                <ele>19.844360</ele>
                <time>2004-09-25T08:00:58Z</time>
            </trkpt>
            <trkpt lon="101.298602" lat="14.251478">
                <ele>18.402344</ele>
                <time>2004-09-25T08:01:23Z</time>
            </trkpt>
            <trkpt lon="101.298902" lat="14.252036">
                <ele>17.921753</ele>
                <time>2004-09-25T08:01:56Z</time>
            </trkpt>
            <trkpt lon="101.299267" lat="14.252636">
                <ele>18.402344</ele>
                <time>2004-09-25T08:02:35Z</time>
            </trkpt>
            <trkpt lon="101.299353" lat="14.253130">
                <ele>18.402344</ele>
                <time>2004-09-25T08:03:01Z</time>
            </trkpt>
            <trkpt lon="101.299353" lat="14.253345">
                <ele>21.766968</ele>
                <time>2004-09-25T08:03:23Z</time>
            </trkpt>
            <trkpt lon="101.299353" lat="14.253323">
                <ele>23.208984</ele>
                <time>2004-09-25T08:03:38Z</time>
            </trkpt>
            <trkpt lon="101.299331" lat="14.252980">
                <ele>22.247559</ele>
                <time>2004-09-25T08:03:57Z</time>
            </trkpt>
            <trkpt lon="101.299267" lat="14.252465">
                <ele>19.363770</ele>
                <time>2004-09-25T08:04:18Z</time>
            </trkpt>
            <trkpt lon="101.299031" lat="14.252079">
                <ele>18.883057</ele>
                <time>2004-09-25T08:04:35Z</time>
            </trkpt>
            <trkpt lon="101.298923" lat="14.252014">
                <ele>19.363770</ele>
                <time>2004-09-25T08:04:46Z</time>
            </trkpt>
            <trkpt lon="101.298902" lat="14.252079">
                <ele>20.324951</ele>
                <time>2004-09-25T08:05:00Z</time>
            </trkpt>
            <trkpt lon="101.298795" lat="14.252443">
                <ele>27.054321</ele>
                <time>2004-09-25T08:05:26Z</time>
            </trkpt>
            <trkpt lon="101.298666" lat="14.252765">
                <ele>26.573608</ele>
                <time>2004-09-25T08:05:55Z</time>
            </trkpt>
            <trkpt lon="101.298623" lat="14.252872">
                <ele>28.496216</ele>
                <time>2004-09-25T08:06:20Z</time>
            </trkpt>
            <trkpt lon="101.298623" lat="14.252872">
                <ele>28.496216</ele>
                <time>2004-09-25T08:06:24Z</time>
            </trkpt>
            <trkpt lon="101.298773" lat="14.252572">
                <ele>28.976929</ele>
                <time>2004-09-25T08:06:44Z</time>
            </trkpt>
            <trkpt lon="101.298816" lat="14.252357">
                <ele>28.496216</ele>
                <time>2004-09-25T08:07:03Z</time>
            </trkpt>
            <trkpt lon="101.298816" lat="14.251928">
                <ele>27.534912</ele>
                <time>2004-09-25T08:07:24Z</time>
            </trkpt>
            <trkpt lon="101.298773" lat="14.251564">
                <ele>28.015503</ele>
                <time>2004-09-25T08:07:45Z</time>
            </trkpt>
            <trkpt lon="101.298816" lat="14.251714">
                <ele>30.899536</ele>
                <time>2004-09-25T08:08:24Z</time>
            </trkpt>
            <trkpt lon="101.298859" lat="14.251885">
                <ele>27.534912</ele>
                <time>2004-09-25T08:08:43Z</time>
            </trkpt>
            <trkpt lon="101.298881" lat="14.251950">
                <ele>28.496216</ele>
                <time>2004-09-25T08:09:01Z</time>
            </trkpt>
            <trkpt lon="101.298687" lat="14.252551">
                <ele>25.612305</ele>
                <time>2004-09-25T08:09:32Z</time>
            </trkpt>
            <trkpt lon="101.298409" lat="14.252872">
                <ele>25.131714</ele>
                <time>2004-09-25T08:10:13Z</time>
            </trkpt>
            <trkpt lon="101.298387" lat="14.252851">
                <ele>19.363770</ele>
                <time>2004-09-25T08:10:52Z</time>
            </trkpt>
            <trkpt lon="101.298451" lat="14.252851">
                <ele>20.805664</ele>
                <time>2004-09-25T08:11:21Z</time>
            </trkpt>
            <trkpt lon="101.298473" lat="14.252830">
                <ele>20.324951</ele>
                <time>2004-09-25T08:11:24Z</time>
            </trkpt>
            <trkpt lon="101.298494" lat="14.252765">
                <ele>17.441162</ele>
                <time>2004-09-25T08:11:28Z</time>
            </trkpt>
            <trkpt lon="101.298709" lat="14.252400">
                <ele>23.208984</ele>
                <time>2004-09-25T08:11:49Z</time>
            </trkpt>
            <trkpt lon="101.298795" lat="14.251907">
                <ele>23.689575</ele>
                <time>2004-09-25T08:12:09Z</time>
            </trkpt>
            <trkpt lon="101.298666" lat="14.251413">
                <ele>21.766968</ele>
                <time>2004-09-25T08:12:28Z</time>
            </trkpt>
            <trkpt lon="101.298580" lat="14.251413">
                <ele>20.324951</ele>
                <time>2004-09-25T08:12:33Z</time>
            </trkpt>
            <trkpt lon="101.298387" lat="14.251564">
                <ele>18.883057</ele>
                <time>2004-09-25T08:12:43Z</time>
            </trkpt>
            <trkpt lon="101.298323" lat="14.251757">
                <ele>19.844360</ele>
                <time>2004-09-25T08:12:58Z</time>
            </trkpt>
            <trkpt lon="101.298280" lat="14.251864">
                <ele>17.921753</ele>
                <time>2004-09-25T08:13:08Z</time>
            </trkpt>
            <trkpt lon="101.298130" lat="14.251950">
                <ele>17.921753</ele>
                <time>2004-09-25T08:13:29Z</time>
            </trkpt>
            <trkpt lon="101.298022" lat="14.252164">
                <ele>16.960449</ele>
                <time>2004-09-25T08:14:13Z</time>
            </trkpt>
            <trkpt lon="101.297743" lat="14.252400">
                <ele>15.037720</ele>
                <time>2004-09-25T08:14:30Z</time>
            </trkpt>
            <trkpt lon="101.297421" lat="14.252722">
                <ele>10.231201</ele>
                <time>2004-09-25T08:14:51Z</time>
            </trkpt>
            <trkpt lon="101.297379" lat="14.253001">
                <ele>10.711792</ele>
                <time>2004-09-25T08:15:09Z</time>
            </trkpt>
            <trkpt lon="101.297379" lat="14.253087">
                <ele>11.192505</ele>
                <time>2004-09-25T08:15:28Z</time>
            </trkpt>
            <trkpt lon="101.297336" lat="14.253216">
                <ele>10.711792</ele>
                <time>2004-09-25T08:15:52Z</time>
            </trkpt>
            <trkpt lon="101.297314" lat="14.253237">
                <ele>12.634399</ele>
                <time>2004-09-25T08:16:00Z</time>
            </trkpt>
            <trkpt lon="101.297143" lat="14.253409">
                <ele>11.192505</ele>
                <time>2004-09-25T08:16:19Z</time>
            </trkpt>
            <trkpt lon="101.297035" lat="14.253516">
                <ele>13.115112</ele>
                <time>2004-09-25T08:16:41Z</time>
            </trkpt>
            <trkpt lon="101.296992" lat="14.253581">
                <ele>15.037720</ele>
                <time>2004-09-25T08:16:52Z</time>
            </trkpt>
            <trkpt lon="101.296885" lat="14.253559">
                <ele>12.153809</ele>
                <time>2004-09-25T08:16:58Z</time>
            </trkpt>
            <trkpt lon="101.296799" lat="14.253774">
                <ele>13.115112</ele>
                <time>2004-09-25T08:17:16Z</time>
            </trkpt>
            <trkpt lon="101.296949" lat="14.254310">
                <ele>15.518433</ele>
                <time>2004-09-25T08:17:38Z</time>
            </trkpt>
            <trkpt lon="101.296992" lat="14.254825">
                <ele>16.960449</ele>
                <time>2004-09-25T08:17:59Z</time>
            </trkpt>
            <trkpt lon="101.297100" lat="14.255018">
                <ele>18.883057</ele>
                <time>2004-09-25T08:18:23Z</time>
            </trkpt>
            <trkpt lon="101.297078" lat="14.254997">
                <ele>19.363770</ele>
                <time>2004-09-25T08:18:47Z</time>
            </trkpt>
            <trkpt lon="101.296949" lat="14.255147">
                <ele>16.479736</ele>
                <time>2004-09-25T08:19:10Z</time>
            </trkpt>
            <trkpt lon="101.296778" lat="14.255297">
                <ele>19.363770</ele>
                <time>2004-09-25T08:19:31Z</time>
            </trkpt>
            <trkpt lon="101.296799" lat="14.255619">
                <ele>20.805664</ele>
                <time>2004-09-25T08:19:54Z</time>
            </trkpt>
            <trkpt lon="101.296864" lat="14.255898">
                <ele>20.324951</ele>
                <time>2004-09-25T08:20:16Z</time>
            </trkpt>
            <trkpt lon="101.297014" lat="14.256327">
                <ele>19.363770</ele>
                <time>2004-09-25T08:20:41Z</time>
            </trkpt>
            <trkpt lon="101.297143" lat="14.256713">
                <ele>18.883057</ele>
                <time>2004-09-25T08:21:06Z</time>
            </trkpt>
            <trkpt lon="101.297164" lat="14.256864">
                <ele>25.131714</ele>
                <time>2004-09-25T08:23:21Z</time>
            </trkpt>
            <trkpt lon="101.297143" lat="14.256520">
                <ele>24.651001</ele>
                <time>2004-09-25T08:23:47Z</time>
            </trkpt>
            <trkpt lon="101.296906" lat="14.256027">
                <ele>23.689575</ele>
                <time>2004-09-25T08:24:11Z</time>
            </trkpt>
            <trkpt lon="101.296842" lat="14.255533">
                <ele>23.208984</ele>
                <time>2004-09-25T08:24:32Z</time>
            </trkpt>
            <trkpt lon="101.296842" lat="14.255533">
                <ele>23.689575</ele>
                <time>2004-09-25T08:24:49Z</time>
            </trkpt>
            <trkpt lon="101.296842" lat="14.255555">
                <ele>23.689575</ele>
                <time>2004-09-25T08:24:54Z</time>
            </trkpt>
            <trkpt lon="101.296842" lat="14.255598">
                <ele>25.131714</ele>
                <time>2004-09-25T08:25:18Z</time>
            </trkpt>
            <trkpt lon="101.296864" lat="14.255576">
                <ele>25.131714</ele>
                <time>2004-09-25T08:25:28Z</time>
            </trkpt>
            <trkpt lon="101.296799" lat="14.255297">
                <ele>25.612305</ele>
                <time>2004-09-25T08:25:45Z</time>
            </trkpt>
            <trkpt lon="101.296864" lat="14.255233">
                <ele>24.651001</ele>
                <time>2004-09-25T08:26:04Z</time>
            </trkpt>
            <trkpt lon="101.296906" lat="14.255190">
                <ele>24.170288</ele>
                <time>2004-09-25T08:26:20Z</time>
            </trkpt>
            <trkpt lon="101.296949" lat="14.255104">
                <ele>25.612305</ele>
                <time>2004-09-25T08:26:36Z</time>
            </trkpt>
            <trkpt lon="101.297014" lat="14.254782">
                <ele>24.170288</ele>
                <time>2004-09-25T08:27:03Z</time>
            </trkpt>
            <trkpt lon="101.296949" lat="14.254417">
                <ele>21.286377</ele>
                <time>2004-09-25T08:27:23Z</time>
            </trkpt>
            <trkpt lon="101.296778" lat="14.253902">
                <ele>18.883057</ele>
                <time>2004-09-25T08:27:42Z</time>
            </trkpt>
            <trkpt lon="101.296692" lat="14.253516">
                <ele>20.805664</ele>
                <time>2004-09-25T08:27:58Z</time>
            </trkpt>
            <trkpt lon="101.296349" lat="14.253109">
                <ele>22.728271</ele>
                <time>2004-09-25T08:28:17Z</time>
            </trkpt>
            <trkpt lon="101.296134" lat="14.252551">
                <ele>24.170288</ele>
                <time>2004-09-25T08:28:36Z</time>
            </trkpt>
            <trkpt lon="101.295984" lat="14.251800">
                <ele>20.805664</ele>
                <time>2004-09-25T08:28:56Z</time>
            </trkpt>
            <trkpt lon="101.295941" lat="14.251306">
                <ele>19.844360</ele>
                <time>2004-09-25T08:29:14Z</time>
            </trkpt>
            <trkpt lon="101.296027" lat="14.250534">
                <ele>15.999023</ele>
                <time>2004-09-25T08:29:31Z</time>
            </trkpt>
            <trkpt lon="101.296177" lat="14.249997">
                <ele>14.076416</ele>
                <time>2004-09-25T08:29:43Z</time>
            </trkpt>
            <trkpt lon="101.296027" lat="14.249911">
                <ele>13.595825</ele>
                <time>2004-09-25T08:29:49Z</time>
            </trkpt>
            <trkpt lon="101.295791" lat="14.249890">
                <ele>13.115112</ele>
                <time>2004-09-25T08:29:55Z</time>
            </trkpt>
            <trkpt lon="101.294847" lat="14.249868">
                <ele>13.595825</ele>
                <time>2004-09-25T08:30:14Z</time>
            </trkpt>
            <trkpt lon="101.294117" lat="14.249868">
                <ele>12.634399</ele>
                <time>2004-09-25T08:30:30Z</time>
            </trkpt>
            <trkpt lon="101.293902" lat="14.249868">
                <ele>11.673218</ele>
                <time>2004-09-25T08:30:35Z</time>
            </trkpt>
            <trkpt lon="101.293559" lat="14.249911">
                <ele>10.711792</ele>
                <time>2004-09-25T08:30:44Z</time>
            </trkpt>
            <trkpt lon="101.292765" lat="14.250083">
                <ele>10.711792</ele>
                <time>2004-09-25T08:31:02Z</time>
            </trkpt>
            <trkpt lon="101.292508" lat="14.250147">
                <ele>9.750610</ele>
                <time>2004-09-25T08:31:08Z</time>
            </trkpt>
            <trkpt lon="101.291714" lat="14.250383">
                <ele>8.308594</ele>
                <time>2004-09-25T08:31:27Z</time>
            </trkpt>
            <trkpt lon="101.290984" lat="14.250641">
                <ele>6.866455</ele>
                <time>2004-09-25T08:31:44Z</time>
            </trkpt>
            <trkpt lon="101.290233" lat="14.251134">
                <ele>6.385864</ele>
                <time>2004-09-25T08:32:01Z</time>
            </trkpt>
            <trkpt lon="101.289546" lat="14.251671">
                <ele>5.905273</ele>
                <time>2004-09-25T08:32:17Z</time>
            </trkpt>
            <trkpt lon="101.288924" lat="14.252357">
                <ele>4.943848</ele>
                <time>2004-09-25T08:32:36Z</time>
            </trkpt>
            <trkpt lon="101.288152" lat="14.252722">
                <ele>4.943848</ele>
                <time>2004-09-25T08:32:52Z</time>
            </trkpt>
            <trkpt lon="101.287723" lat="14.252872">
                <ele>3.501953</ele>
                <time>2004-09-25T08:33:00Z</time>
            </trkpt>
            <trkpt lon="101.287315" lat="14.252851">
                <ele>4.463257</ele>
                <time>2004-09-25T08:33:08Z</time>
            </trkpt>
            <trkpt lon="101.286607" lat="14.252808">
                <ele>4.463257</ele>
                <time>2004-09-25T08:33:22Z</time>
            </trkpt>
            <trkpt lon="101.285555" lat="14.252744">
                <ele>5.905273</ele>
                <time>2004-09-25T08:33:42Z</time>
            </trkpt>
            <trkpt lon="101.284311" lat="14.252594">
                <ele>7.827881</ele>
                <time>2004-09-25T08:34:05Z</time>
            </trkpt>
            <trkpt lon="101.283581" lat="14.252486">
                <ele>7.827881</ele>
                <time>2004-09-25T08:34:18Z</time>
            </trkpt>
            <trkpt lon="101.282916" lat="14.252594">
                <ele>7.347168</ele>
                <time>2004-09-25T08:34:33Z</time>
            </trkpt>
            <trkpt lon="101.282895" lat="14.252615">
                <ele>8.308594</ele>
                <time>2004-09-25T08:34:45Z</time>
            </trkpt>
            <trkpt lon="101.282895" lat="14.252615">
                <ele>7.347168</ele>
                <time>2004-09-25T08:34:49Z</time>
            </trkpt>
            <trkpt lon="101.282766" lat="14.252229">
                <ele>5.905273</ele>
                <time>2004-09-25T08:35:02Z</time>
            </trkpt>
            <trkpt lon="101.282272" lat="14.251692">
                <ele>5.905273</ele>
                <time>2004-09-25T08:35:18Z</time>
            </trkpt>
            <trkpt lon="101.281414" lat="14.251370">
                <ele>6.385864</ele>
                <time>2004-09-25T08:35:36Z</time>
            </trkpt>
            <trkpt lon="101.280491" lat="14.251263">
                <ele>6.866455</ele>
                <time>2004-09-25T08:35:54Z</time>
            </trkpt>
            <trkpt lon="101.280384" lat="14.251263">
                <ele>7.347168</ele>
                <time>2004-09-25T08:35:56Z</time>
            </trkpt>
            <trkpt lon="101.279418" lat="14.251263">
                <ele>6.385864</ele>
                <time>2004-09-25T08:36:12Z</time>
            </trkpt>
            <trkpt lon="101.278496" lat="14.251220">
                <ele>5.905273</ele>
                <time>2004-09-25T08:36:27Z</time>
            </trkpt>
            <trkpt lon="101.277916" lat="14.250705">
                <ele>7.827881</ele>
                <time>2004-09-25T08:36:41Z</time>
            </trkpt>
            <trkpt lon="101.277080" lat="14.249976">
                <ele>7.347168</ele>
                <time>2004-09-25T08:37:02Z</time>
            </trkpt>
            <trkpt lon="101.276522" lat="14.249482">
                <ele>6.385864</ele>
                <time>2004-09-25T08:37:19Z</time>
            </trkpt>
            <trkpt lon="101.276371" lat="14.249332">
                <ele>6.385864</ele>
                <time>2004-09-25T08:37:24Z</time>
            </trkpt>
            <trkpt lon="101.275578" lat="14.248559">
                <ele>8.308594</ele>
                <time>2004-09-25T08:37:47Z</time>
            </trkpt>
            <trkpt lon="101.275020" lat="14.247916">
                <ele>8.789185</ele>
                <time>2004-09-25T08:38:03Z</time>
            </trkpt>
            <trkpt lon="101.274998" lat="14.247808">
                <ele>9.269897</ele>
                <time>2004-09-25T08:38:05Z</time>
            </trkpt>
            <trkpt lon="101.274977" lat="14.247701">
                <ele>9.269897</ele>
                <time>2004-09-25T08:38:07Z</time>
            </trkpt>
            <trkpt lon="101.275084" lat="14.246821">
                <ele>6.866455</ele>
                <time>2004-09-25T08:38:23Z</time>
            </trkpt>
            <trkpt lon="101.275170" lat="14.246435">
                <ele>6.866455</ele>
                <time>2004-09-25T08:38:30Z</time>
            </trkpt>
            <trkpt lon="101.275320" lat="14.246135">
                <ele>6.385864</ele>
                <time>2004-09-25T08:38:36Z</time>
            </trkpt>
            <trkpt lon="101.275342" lat="14.246049">
                <ele>6.385864</ele>
                <time>2004-09-25T08:38:38Z</time>
            </trkpt>
            <trkpt lon="101.275148" lat="14.245877">
                <ele>5.905273</ele>
                <time>2004-09-25T08:38:45Z</time>
            </trkpt>
            <trkpt lon="101.274033" lat="14.245749">
                <ele>2.540649</ele>
                <time>2004-09-25T08:39:08Z</time>
            </trkpt>
            <trkpt lon="101.272724" lat="14.245512">
                <ele>2.540649</ele>
                <time>2004-09-25T08:39:35Z</time>
            </trkpt>
            <trkpt lon="101.272659" lat="14.245491">
                <ele>2.540649</ele>
                <time>2004-09-25T08:39:44Z</time>
            </trkpt>
            <trkpt lon="101.272702" lat="14.245448">
                <ele>6.385864</ele>
                <time>2004-09-25T08:40:21Z</time>
            </trkpt>
            <trkpt lon="101.272638" lat="14.245448">
                <ele>6.866455</ele>
                <time>2004-09-25T08:40:48Z</time>
            </trkpt>
            <trkpt lon="101.272552" lat="14.245427">
                <ele>6.385864</ele>
                <time>2004-09-25T08:41:13Z</time>
            </trkpt>
            <trkpt lon="101.272466" lat="14.245384">
                <ele>8.789185</ele>
                <time>2004-09-25T08:41:24Z</time>
            </trkpt>
            <trkpt lon="101.271758" lat="14.245255">
                <ele>7.347168</ele>
                <time>2004-09-25T08:41:40Z</time>
            </trkpt>
            <trkpt lon="101.271350" lat="14.245191">
                <ele>6.866455</ele>
                <time>2004-09-25T08:41:48Z</time>
            </trkpt>
            <trkpt lon="101.271114" lat="14.245191">
                <ele>6.385864</ele>
                <time>2004-09-25T08:41:52Z</time>
            </trkpt>
            <trkpt lon="101.271007" lat="14.245191">
                <ele>6.866455</ele>
                <time>2004-09-25T08:41:54Z</time>
            </trkpt>
            <trkpt lon="101.270235" lat="14.245555">
                <ele>7.347168</ele>
                <time>2004-09-25T08:42:09Z</time>
            </trkpt>
            <trkpt lon="101.269376" lat="14.246285">
                <ele>8.789185</ele>
                <time>2004-09-25T08:42:27Z</time>
            </trkpt>
            <trkpt lon="101.269269" lat="14.246564">
                <ele>8.789185</ele>
                <time>2004-09-25T08:42:32Z</time>
            </trkpt>
            <trkpt lon="101.269097" lat="14.247594">
                <ele>7.347168</ele>
                <time>2004-09-25T08:42:50Z</time>
            </trkpt>
            <trkpt lon="101.268775" lat="14.248173">
                <ele>7.347168</ele>
                <time>2004-09-25T08:43:01Z</time>
            </trkpt>
            <trkpt lon="101.268175" lat="14.249074">
                <ele>7.347168</ele>
                <time>2004-09-25T08:43:20Z</time>
            </trkpt>
            <trkpt lon="101.267531" lat="14.250019">
                <ele>7.347168</ele>
                <time>2004-09-25T08:43:41Z</time>
            </trkpt>
            <trkpt lon="101.267445" lat="14.250169">
                <ele>7.347168</ele>
                <time>2004-09-25T08:43:45Z</time>
            </trkpt>
            <trkpt lon="101.267552" lat="14.250340">
                <ele>6.866455</ele>
                <time>2004-09-25T08:43:54Z</time>
            </trkpt>
            <trkpt lon="101.267595" lat="14.250340">
                <ele>6.866455</ele>
                <time>2004-09-25T08:43:55Z</time>
            </trkpt>
            <trkpt lon="101.268110" lat="14.250212">
                <ele>6.385864</ele>
                <time>2004-09-25T08:44:09Z</time>
            </trkpt>
            <trkpt lon="101.268947" lat="14.250019">
                <ele>8.789185</ele>
                <time>2004-09-25T08:44:30Z</time>
            </trkpt>
            <trkpt lon="101.268947" lat="14.250233">
                <ele>8.308594</ele>
                <time>2004-09-25T08:44:36Z</time>
            </trkpt>
            <trkpt lon="101.269011" lat="14.250405">
                <ele>7.827881</ele>
                <time>2004-09-25T08:44:40Z</time>
            </trkpt>
            <trkpt lon="101.269569" lat="14.250705">
                <ele>6.866455</ele>
                <time>2004-09-25T08:44:52Z</time>
            </trkpt>
            <trkpt lon="101.269805" lat="14.250791">
                <ele>7.347168</ele>
                <time>2004-09-25T08:44:57Z</time>
            </trkpt>
            <trkpt lon="101.269956" lat="14.250984">
                <ele>8.308594</ele>
                <time>2004-09-25T08:45:02Z</time>
            </trkpt>
            <trkpt lon="101.270127" lat="14.251091">
                <ele>8.308594</ele>
                <time>2004-09-25T08:45:06Z</time>
            </trkpt>
            <trkpt lon="101.270213" lat="14.251134">
                <ele>8.789185</ele>
                <time>2004-09-25T08:45:08Z</time>
            </trkpt>
            <trkpt lon="101.270320" lat="14.251285">
                <ele>8.789185</ele>
                <time>2004-09-25T08:45:12Z</time>
            </trkpt>
            <trkpt lon="101.270514" lat="14.251413">
                <ele>8.789185</ele>
                <time>2004-09-25T08:45:19Z</time>
            </trkpt>
            <trkpt lon="101.270578" lat="14.251456">
                <ele>9.269897</ele>
                <time>2004-09-25T08:45:21Z</time>
            </trkpt>
            <trkpt lon="101.270728" lat="14.251649">
                <ele>7.347168</ele>
                <time>2004-09-25T08:45:28Z</time>
            </trkpt>
            <trkpt lon="101.270750" lat="14.251671">
                <ele>6.385864</ele>
                <time>2004-09-25T08:45:31Z</time>
            </trkpt>
            <trkpt lon="101.270728" lat="14.251714">
                <ele>5.905273</ele>
                <time>2004-09-25T08:45:35Z</time>
            </trkpt>
            <trkpt lon="101.270599" lat="14.252121">
                <ele>5.905273</ele>
                <time>2004-09-25T08:45:56Z</time>
            </trkpt>
            <trkpt lon="101.270535" lat="14.252529">
                <ele>8.789185</ele>
                <time>2004-09-25T08:46:22Z</time>
            </trkpt>
            <trkpt lon="101.270621" lat="14.252636">
                <ele>6.866455</ele>
                <time>2004-09-25T08:46:32Z</time>
            </trkpt>
            <trkpt lon="101.270685" lat="14.252701">
                <ele>6.866455</ele>
                <time>2004-09-25T08:46:36Z</time>
            </trkpt>
            <trkpt lon="101.270728" lat="14.252679">
                <ele>6.385864</ele>
                <time>2004-09-25T08:46:48Z</time>
            </trkpt>
            <trkpt lon="101.270707" lat="14.252615">
                <ele>5.905273</ele>
                <time>2004-09-25T08:47:51Z</time>
            </trkpt>
            <trkpt lon="101.270835" lat="14.252658">
                <ele>6.385864</ele>
                <time>2004-09-25T08:47:56Z</time>
            </trkpt>
            <trkpt lon="101.270900" lat="14.252701">
                <ele>5.905273</ele>
                <time>2004-09-25T08:47:58Z</time>
            </trkpt>
            <trkpt lon="101.270986" lat="14.252722">
                <ele>6.385864</ele>
                <time>2004-09-25T08:48:00Z</time>
            </trkpt>
            <trkpt lon="101.271157" lat="14.252830">
                <ele>6.385864</ele>
                <time>2004-09-25T08:48:04Z</time>
            </trkpt>
            <trkpt lon="101.271415" lat="14.253044">
                <ele>6.866455</ele>
                <time>2004-09-25T08:48:11Z</time>
            </trkpt>
            <trkpt lon="101.272316" lat="14.253409">
                <ele>8.789185</ele>
                <time>2004-09-25T08:48:29Z</time>
            </trkpt>
            <trkpt lon="101.272466" lat="14.253452">
                <ele>9.269897</ele>
                <time>2004-09-25T08:48:32Z</time>
            </trkpt>
            <trkpt lon="101.273389" lat="14.253366">
                <ele>10.231201</ele>
                <time>2004-09-25T08:48:49Z</time>
            </trkpt>
            <trkpt lon="101.274354" lat="14.253194">
                <ele>11.673218</ele>
                <time>2004-09-25T08:49:08Z</time>
            </trkpt>
            <trkpt lon="101.274719" lat="14.253130">
                <ele>12.153809</ele>
                <time>2004-09-25T08:49:15Z</time>
            </trkpt>
            <trkpt lon="101.274934" lat="14.253130">
                <ele>11.673218</ele>
                <time>2004-09-25T08:49:19Z</time>
            </trkpt>
            <trkpt lon="101.275105" lat="14.253216">
                <ele>11.673218</ele>
                <time>2004-09-25T08:49:23Z</time>
            </trkpt>
            <trkpt lon="101.275191" lat="14.253323">
                <ele>11.192505</ele>
                <time>2004-09-25T08:49:26Z</time>
            </trkpt>
            <trkpt lon="101.275728" lat="14.253709">
                <ele>11.192505</ele>
                <time>2004-09-25T08:49:39Z</time>
            </trkpt>
            <trkpt lon="101.276565" lat="14.254010">
                <ele>12.153809</ele>
                <time>2004-09-25T08:49:55Z</time>
            </trkpt>
            <trkpt lon="101.276779" lat="14.254203">
                <ele>10.711792</ele>
                <time>2004-09-25T08:50:01Z</time>
            </trkpt>
            <trkpt lon="101.276693" lat="14.254396">
                <ele>10.711792</ele>
                <time>2004-09-25T08:50:07Z</time>
            </trkpt>
            <trkpt lon="101.276178" lat="14.254632">
                <ele>10.711792</ele>
                <time>2004-09-25T08:50:19Z</time>
            </trkpt>
            <trkpt lon="101.276157" lat="14.254825">
                <ele>11.192505</ele>
                <time>2004-09-25T08:50:24Z</time>
            </trkpt>
            <trkpt lon="101.276200" lat="14.255126">
                <ele>11.673218</ele>
                <time>2004-09-25T08:50:31Z</time>
            </trkpt>
            <trkpt lon="101.276200" lat="14.255319">
                <ele>11.673218</ele>
                <time>2004-09-25T08:50:35Z</time>
            </trkpt>
            <trkpt lon="101.276436" lat="14.255984">
                <ele>12.634399</ele>
                <time>2004-09-25T08:50:53Z</time>
            </trkpt>
            <trkpt lon="101.276586" lat="14.256434">
                <ele>12.634399</ele>
                <time>2004-09-25T08:51:07Z</time>
            </trkpt>
            <trkpt lon="101.276565" lat="14.256392">
                <ele>11.673218</ele>
                <time>2004-09-25T08:51:25Z</time>
            </trkpt>
            <trkpt lon="101.276608" lat="14.256306">
                <ele>22.728271</ele>
                <time>2004-09-25T08:52:41Z</time>
            </trkpt>
            <trkpt lon="101.276715" lat="14.256735">
                <ele>18.883057</ele>
                <time>2004-09-25T08:53:01Z</time>
            </trkpt>
            <trkpt lon="101.276715" lat="14.256885">
                <ele>20.324951</ele>
                <time>2004-09-25T08:53:15Z</time>
            </trkpt>
            <trkpt lon="101.276650" lat="14.257035">
                <ele>18.883057</ele>
                <time>2004-09-25T08:53:33Z</time>
            </trkpt>
            <trkpt lon="101.276608" lat="14.257014">
                <ele>18.402344</ele>
                <time>2004-09-25T08:53:37Z</time>
            </trkpt>
            <trkpt lon="101.276457" lat="14.256992">
                <ele>16.960449</ele>
                <time>2004-09-25T08:53:54Z</time>
            </trkpt>
            <trkpt lon="101.276157" lat="14.257078">
                <ele>15.518433</ele>
                <time>2004-09-25T08:54:12Z</time>
            </trkpt>
            <trkpt lon="101.275921" lat="14.257078">
                <ele>15.037720</ele>
                <time>2004-09-25T08:54:26Z</time>
            </trkpt>
            <trkpt lon="101.275663" lat="14.257121">
                <ele>13.115112</ele>
                <time>2004-09-25T08:54:46Z</time>
            </trkpt>
            <trkpt lon="101.275470" lat="14.257207">
                <ele>9.269897</ele>
                <time>2004-09-25T08:55:02Z</time>
            </trkpt>
            <trkpt lon="101.275470" lat="14.257271">
                <ele>12.634399</ele>
                <time>2004-09-25T08:55:24Z</time>
            </trkpt>
            <trkpt lon="101.275427" lat="14.257336">
                <ele>17.441162</ele>
                <time>2004-09-25T08:57:04Z</time>
            </trkpt>
            <trkpt lon="101.275427" lat="14.257464">
                <ele>17.441162</ele>
                <time>2004-09-25T08:57:20Z</time>
            </trkpt>
            <trkpt lon="101.275449" lat="14.257615">
                <ele>14.557007</ele>
                <time>2004-09-25T08:57:39Z</time>
            </trkpt>
            <trkpt lon="101.275470" lat="14.257700">
                <ele>13.595825</ele>
                <time>2004-09-25T08:57:54Z</time>
            </trkpt>
            <trkpt lon="101.275470" lat="14.257808">
                <ele>13.595825</ele>
                <time>2004-09-25T08:58:13Z</time>
            </trkpt>
            <trkpt lon="101.275470" lat="14.257936">
                <ele>11.673218</ele>
                <time>2004-09-25T08:58:30Z</time>
            </trkpt>
            <trkpt lon="101.275449" lat="14.258087">
                <ele>12.634399</ele>
                <time>2004-09-25T08:58:50Z</time>
            </trkpt>
            <trkpt lon="101.275427" lat="14.258215">
                <ele>14.076416</ele>
                <time>2004-09-25T08:59:10Z</time>
            </trkpt>
            <trkpt lon="101.275406" lat="14.258237">
                <ele>13.595825</ele>
                <time>2004-09-25T08:59:12Z</time>
            </trkpt>
            <trkpt lon="101.275406" lat="14.258344">
                <ele>12.634399</ele>
                <time>2004-09-25T08:59:20Z</time>
            </trkpt>
            <trkpt lon="101.275406" lat="14.258516">
                <ele>12.153809</ele>
                <time>2004-09-25T08:59:33Z</time>
            </trkpt>
            <trkpt lon="101.275406" lat="14.258580">
                <ele>13.115112</ele>
                <time>2004-09-25T08:59:38Z</time>
            </trkpt>
            <trkpt lon="101.275406" lat="14.258687">
                <ele>12.634399</ele>
                <time>2004-09-25T08:59:45Z</time>
            </trkpt>
            <trkpt lon="101.275384" lat="14.258795">
                <ele>12.153809</ele>
                <time>2004-09-25T09:00:01Z</time>
            </trkpt>
            <trkpt lon="101.275384" lat="14.258838">
                <ele>10.711792</ele>
                <time>2004-09-25T09:00:20Z</time>
            </trkpt>
            <trkpt lon="101.275427" lat="14.258859">
                <ele>10.711792</ele>
                <time>2004-09-25T09:00:27Z</time>
            </trkpt>
            <trkpt lon="101.275492" lat="14.258924">
                <ele>10.231201</ele>
                <time>2004-09-25T09:00:34Z</time>
            </trkpt>
            <trkpt lon="101.275556" lat="14.259138">
                <ele>9.269897</ele>
                <time>2004-09-25T09:00:42Z</time>
            </trkpt>
            <trkpt lon="101.275556" lat="14.259181">
                <ele>9.269897</ele>
                <time>2004-09-25T09:00:44Z</time>
            </trkpt>
            <trkpt lon="101.275427" lat="14.259267">
                <ele>8.308594</ele>
                <time>2004-09-25T09:00:49Z</time>
            </trkpt>
            <trkpt lon="101.274784" lat="14.259288">
                <ele>10.231201</ele>
                <time>2004-09-25T09:01:06Z</time>
            </trkpt>
            <trkpt lon="101.274397" lat="14.259267">
                <ele>11.192505</ele>
                <time>2004-09-25T09:01:15Z</time>
            </trkpt>
            <trkpt lon="101.274269" lat="14.259074">
                <ele>11.192505</ele>
                <time>2004-09-25T09:01:21Z</time>
            </trkpt>
            <trkpt lon="101.274011" lat="14.258795">
                <ele>11.673218</ele>
                <time>2004-09-25T09:01:30Z</time>
            </trkpt>
            <trkpt lon="101.272895" lat="14.258580">
                <ele>11.673218</ele>
                <time>2004-09-25T09:01:51Z</time>
            </trkpt>
            <trkpt lon="101.271758" lat="14.258409">
                <ele>11.673218</ele>
                <time>2004-09-25T09:02:12Z</time>
            </trkpt>
            <trkpt lon="101.270814" lat="14.258065">
                <ele>11.192505</ele>
                <time>2004-09-25T09:02:31Z</time>
            </trkpt>
            <trkpt lon="101.270342" lat="14.257958">
                <ele>10.711792</ele>
                <time>2004-09-25T09:02:40Z</time>
            </trkpt>
            <trkpt lon="101.269913" lat="14.257851">
                <ele>10.711792</ele>
                <time>2004-09-25T09:02:48Z</time>
            </trkpt>
            <trkpt lon="101.269784" lat="14.257700">
                <ele>10.711792</ele>
                <time>2004-09-25T09:02:52Z</time>
            </trkpt>
            <trkpt lon="101.269698" lat="14.257572">
                <ele>10.711792</ele>
                <time>2004-09-25T09:02:55Z</time>
            </trkpt>
            <trkpt lon="101.269677" lat="14.257486">
                <ele>10.711792</ele>
                <time>2004-09-25T09:02:57Z</time>
            </trkpt>
            <trkpt lon="101.269634" lat="14.257078">
                <ele>10.231201</ele>
                <time>2004-09-25T09:03:05Z</time>
            </trkpt>
            <trkpt lon="101.269505" lat="14.256885">
                <ele>10.231201</ele>
                <time>2004-09-25T09:03:10Z</time>
            </trkpt>
            <trkpt lon="101.268840" lat="14.256542">
                <ele>10.231201</ele>
                <time>2004-09-25T09:03:24Z</time>
            </trkpt>
            <trkpt lon="101.268582" lat="14.256606">
                <ele>10.231201</ele>
                <time>2004-09-25T09:03:30Z</time>
            </trkpt>
            <trkpt lon="101.267960" lat="14.257100">
                <ele>9.750610</ele>
                <time>2004-09-25T09:03:48Z</time>
            </trkpt>
            <trkpt lon="101.267595" lat="14.257379">
                <ele>9.750610</ele>
                <time>2004-09-25T09:03:58Z</time>
            </trkpt>
            <trkpt lon="101.267316" lat="14.257443">
                <ele>9.750610</ele>
                <time>2004-09-25T09:04:04Z</time>
            </trkpt>
            <trkpt lon="101.267231" lat="14.257443">
                <ele>9.750610</ele>
                <time>2004-09-25T09:04:06Z</time>
            </trkpt>
            <trkpt lon="101.267037" lat="14.257379">
                <ele>9.750610</ele>
                <time>2004-09-25T09:04:10Z</time>
            </trkpt>
            <trkpt lon="101.266608" lat="14.257421">
                <ele>9.750610</ele>
                <time>2004-09-25T09:04:19Z</time>
            </trkpt>
            <trkpt lon="101.266437" lat="14.257529">
                <ele>10.231201</ele>
                <time>2004-09-25T09:04:23Z</time>
            </trkpt>
            <trkpt lon="101.266243" lat="14.257572">
                <ele>9.750610</ele>
                <time>2004-09-25T09:04:27Z</time>
            </trkpt>
            <trkpt lon="101.266029" lat="14.257593">
                <ele>9.269897</ele>
                <time>2004-09-25T09:04:31Z</time>
            </trkpt>
            <trkpt lon="101.265922" lat="14.257700">
                <ele>9.269897</ele>
                <time>2004-09-25T09:04:35Z</time>
            </trkpt>
            <trkpt lon="101.265836" lat="14.258709">
                <ele>10.231201</ele>
                <time>2004-09-25T09:04:56Z</time>
            </trkpt>
            <trkpt lon="101.265793" lat="14.259138">
                <ele>10.231201</ele>
                <time>2004-09-25T09:05:05Z</time>
            </trkpt>
            <trkpt lon="101.265664" lat="14.259288">
                <ele>10.711792</ele>
                <time>2004-09-25T09:05:10Z</time>
            </trkpt>
            <trkpt lon="101.265278" lat="14.259589">
                <ele>10.231201</ele>
                <time>2004-09-25T09:05:25Z</time>
            </trkpt>
            <trkpt lon="101.265256" lat="14.259653">
                <ele>7.827881</ele>
                <time>2004-09-25T09:05:45Z</time>
            </trkpt>
            <trkpt lon="101.265299" lat="14.259825">
                <ele>8.308594</ele>
                <time>2004-09-25T09:05:53Z</time>
            </trkpt>
            <trkpt lon="101.265235" lat="14.259975">
                <ele>8.789185</ele>
                <time>2004-09-25T09:06:00Z</time>
            </trkpt>
            <trkpt lon="101.265128" lat="14.260082">
                <ele>8.789185</ele>
                <time>2004-09-25T09:06:06Z</time>
            </trkpt>
            <trkpt lon="101.265235" lat="14.260447">
                <ele>8.308594</ele>
                <time>2004-09-25T09:06:19Z</time>
            </trkpt>
            <trkpt lon="101.265342" lat="14.260941">
                <ele>8.308594</ele>
                <time>2004-09-25T09:06:32Z</time>
            </trkpt>
            <trkpt lon="101.265256" lat="14.261198">
                <ele>8.789185</ele>
                <time>2004-09-25T09:06:38Z</time>
            </trkpt>
            <trkpt lon="101.264870" lat="14.261692">
                <ele>8.789185</ele>
                <time>2004-09-25T09:06:51Z</time>
            </trkpt>
            <trkpt lon="101.264548" lat="14.261949">
                <ele>8.789185</ele>
                <time>2004-09-25T09:07:00Z</time>
            </trkpt>
            <trkpt lon="101.263561" lat="14.262486">
                <ele>11.192505</ele>
                <time>2004-09-25T09:07:27Z</time>
            </trkpt>
            <trkpt lon="101.262853" lat="14.263022">
                <ele>11.673218</ele>
                <time>2004-09-25T09:07:50Z</time>
            </trkpt>
            <trkpt lon="101.262810" lat="14.263086">
                <ele>11.673218</ele>
                <time>2004-09-25T09:07:52Z</time>
            </trkpt>
            <trkpt lon="101.262853" lat="14.263215">
                <ele>10.711792</ele>
                <time>2004-09-25T09:07:56Z</time>
            </trkpt>
            <trkpt lon="101.263025" lat="14.263473">
                <ele>11.673218</ele>
                <time>2004-09-25T09:08:03Z</time>
            </trkpt>
            <trkpt lon="101.263196" lat="14.263623">
                <ele>11.192505</ele>
                <time>2004-09-25T09:08:08Z</time>
            </trkpt>
            <trkpt lon="101.263626" lat="14.263687">
                <ele>12.634399</ele>
                <time>2004-09-25T09:08:19Z</time>
            </trkpt>
            <trkpt lon="101.263819" lat="14.263709">
                <ele>12.153809</ele>
                <time>2004-09-25T09:08:23Z</time>
            </trkpt>
            <trkpt lon="101.263990" lat="14.264052">
                <ele>12.153809</ele>
                <time>2004-09-25T09:08:31Z</time>
            </trkpt>
            <trkpt lon="101.263883" lat="14.264245">
                <ele>13.115112</ele>
                <time>2004-09-25T09:08:35Z</time>
            </trkpt>
            <trkpt lon="101.263111" lat="14.264932">
                <ele>13.115112</ele>
                <time>2004-09-25T09:08:55Z</time>
            </trkpt>
            <trkpt lon="101.262617" lat="14.265532">
                <ele>12.634399</ele>
                <time>2004-09-25T09:09:14Z</time>
            </trkpt>
            <trkpt lon="101.262124" lat="14.265790">
                <ele>13.115112</ele>
                <time>2004-09-25T09:09:30Z</time>
            </trkpt>
            <trkpt lon="101.261544" lat="14.266241">
                <ele>13.595825</ele>
                <time>2004-09-25T09:09:52Z</time>
            </trkpt>
            <trkpt lon="101.260922" lat="14.266734">
                <ele>13.595825</ele>
                <time>2004-09-25T09:10:14Z</time>
            </trkpt>
            <trkpt lon="101.260750" lat="14.266992">
                <ele>14.076416</ele>
                <time>2004-09-25T09:10:25Z</time>
            </trkpt>
            <trkpt lon="101.260622" lat="14.267721">
                <ele>12.634399</ele>
                <time>2004-09-25T09:10:41Z</time>
            </trkpt>
            <trkpt lon="101.260407" lat="14.268601">
                <ele>13.115112</ele>
                <time>2004-09-25T09:11:03Z</time>
            </trkpt>
            <trkpt lon="101.260300" lat="14.269094">
                <ele>11.192505</ele>
                <time>2004-09-25T09:11:20Z</time>
            </trkpt>
            <trkpt lon="101.260364" lat="14.269373">
                <ele>11.673218</ele>
                <time>2004-09-25T09:11:33Z</time>
            </trkpt>
            <trkpt lon="101.260514" lat="14.269717">
                <ele>12.153809</ele>
                <time>2004-09-25T09:11:47Z</time>
            </trkpt>
            <trkpt lon="101.260643" lat="14.270103">
                <ele>13.115112</ele>
                <time>2004-09-25T09:12:00Z</time>
            </trkpt>
            <trkpt lon="101.260793" lat="14.270511">
                <ele>12.634399</ele>
                <time>2004-09-25T09:12:14Z</time>
            </trkpt>
            <trkpt lon="101.260815" lat="14.271026">
                <ele>13.595825</ele>
                <time>2004-09-25T09:12:31Z</time>
            </trkpt>
            <trkpt lon="101.260815" lat="14.271669">
                <ele>15.037720</ele>
                <time>2004-09-25T09:12:48Z</time>
            </trkpt>
            <trkpt lon="101.260879" lat="14.272463">
                <ele>15.999023</ele>
                <time>2004-09-25T09:13:10Z</time>
            </trkpt>
            <trkpt lon="101.261051" lat="14.273000">
                <ele>15.999023</ele>
                <time>2004-09-25T09:13:26Z</time>
            </trkpt>
            <trkpt lon="101.261308" lat="14.273579">
                <ele>15.518433</ele>
                <time>2004-09-25T09:13:43Z</time>
            </trkpt>
            <trkpt lon="101.261673" lat="14.274116">
                <ele>15.518433</ele>
                <time>2004-09-25T09:13:59Z</time>
            </trkpt>
            <trkpt lon="101.262167" lat="14.274695">
                <ele>15.037720</ele>
                <time>2004-09-25T09:14:19Z</time>
            </trkpt>
            <trkpt lon="101.262660" lat="14.275317">
                <ele>16.479736</ele>
                <time>2004-09-25T09:14:40Z</time>
            </trkpt>
            <trkpt lon="101.263111" lat="14.275897">
                <ele>17.921753</ele>
                <time>2004-09-25T09:15:02Z</time>
            </trkpt>
            <trkpt lon="101.263776" lat="14.276669">
                <ele>16.960449</ele>
                <time>2004-09-25T09:15:26Z</time>
            </trkpt>
            <trkpt lon="101.264420" lat="14.277270">
                <ele>18.402344</ele>
                <time>2004-09-25T09:15:47Z</time>
            </trkpt>
            <trkpt lon="101.265085" lat="14.277785">
                <ele>19.844360</ele>
                <time>2004-09-25T09:16:11Z</time>
            </trkpt>
            <trkpt lon="101.265514" lat="14.278321">
                <ele>20.805664</ele>
                <time>2004-09-25T09:16:32Z</time>
            </trkpt>
            <trkpt lon="101.265428" lat="14.278536">
                <ele>20.324951</ele>
                <time>2004-09-25T09:16:42Z</time>
            </trkpt>
            <trkpt lon="101.265321" lat="14.278686">
                <ele>20.324951</ele>
                <time>2004-09-25T09:16:49Z</time>
            </trkpt>
            <trkpt lon="101.265213" lat="14.279158">
                <ele>20.805664</ele>
                <time>2004-09-25T09:17:09Z</time>
            </trkpt>
            <trkpt lon="101.264935" lat="14.280016">
                <ele>20.805664</ele>
                <time>2004-09-25T09:17:33Z</time>
            </trkpt>
            <trkpt lon="101.264677" lat="14.280918">
                <ele>23.689575</ele>
                <time>2004-09-25T09:18:05Z</time>
            </trkpt>
            <trkpt lon="101.264205" lat="14.281561">
                <ele>25.131714</ele>
                <time>2004-09-25T09:18:30Z</time>
            </trkpt>
            <trkpt lon="101.264033" lat="14.281883">
                <ele>26.573608</ele>
                <time>2004-09-25T09:18:50Z</time>
            </trkpt>
            <trkpt lon="101.263862" lat="14.282098">
                <ele>27.054321</ele>
                <time>2004-09-25T09:19:06Z</time>
            </trkpt>
            <trkpt lon="101.263797" lat="14.282248">
                <ele>26.573608</ele>
                <time>2004-09-25T09:19:29Z</time>
            </trkpt>
            <trkpt lon="101.263540" lat="14.282742">
                <ele>25.131714</ele>
                <time>2004-09-25T09:19:56Z</time>
            </trkpt>
            <trkpt lon="101.262853" lat="14.283407">
                <ele>26.092896</ele>
                <time>2004-09-25T09:20:33Z</time>
            </trkpt>
            <trkpt lon="101.262789" lat="14.283943">
                <ele>28.496216</ele>
                <time>2004-09-25T09:20:58Z</time>
            </trkpt>
            <trkpt lon="101.262832" lat="14.284587">
                <ele>29.938110</ele>
                <time>2004-09-25T09:21:33Z</time>
            </trkpt>
            <trkpt lon="101.262531" lat="14.285402">
                <ele>29.938110</ele>
                <time>2004-09-25T09:22:20Z</time>
            </trkpt>
            <trkpt lon="101.262574" lat="14.285724">
                <ele>32.341553</ele>
                <time>2004-09-25T09:22:36Z</time>
            </trkpt>
            <trkpt lon="101.262574" lat="14.285746">
                <ele>32.341553</ele>
                <time>2004-09-25T09:22:38Z</time>
            </trkpt>
            <trkpt lon="101.262746" lat="14.286089">
                <ele>32.341553</ele>
                <time>2004-09-25T09:22:56Z</time>
            </trkpt>
            <trkpt lon="101.262789" lat="14.286368">
                <ele>34.264160</ele>
                <time>2004-09-25T09:23:08Z</time>
            </trkpt>
            <trkpt lon="101.262531" lat="14.286411">
                <ele>34.744873</ele>
                <time>2004-09-25T09:23:23Z</time>
            </trkpt>
            <trkpt lon="101.262317" lat="14.286389">
                <ele>33.302856</ele>
                <time>2004-09-25T09:23:34Z</time>
            </trkpt>
            <trkpt lon="101.262231" lat="14.286625">
                <ele>33.783447</ele>
                <time>2004-09-25T09:23:46Z</time>
            </trkpt>
            <trkpt lon="101.262081" lat="14.286990">
                <ele>34.264160</ele>
                <time>2004-09-25T09:23:58Z</time>
            </trkpt>
            <trkpt lon="101.262252" lat="14.287076">
                <ele>35.225464</ele>
                <time>2004-09-25T09:24:04Z</time>
            </trkpt>
            <trkpt lon="101.262832" lat="14.287055">
                <ele>34.744873</ele>
                <time>2004-09-25T09:24:19Z</time>
            </trkpt>
            <trkpt lon="101.263862" lat="14.286797">
                <ele>34.744873</ele>
                <time>2004-09-25T09:24:46Z</time>
            </trkpt>
            <trkpt lon="101.263947" lat="14.286776">
                <ele>33.783447</ele>
                <time>2004-09-25T09:24:48Z</time>
            </trkpt>
            <trkpt lon="101.264055" lat="14.286733">
                <ele>31.860718</ele>
                <time>2004-09-25T09:24:56Z</time>
            </trkpt>
            <trkpt lon="101.264055" lat="14.286754">
                <ele>29.457520</ele>
                <time>2004-09-25T09:25:57Z</time>
            </trkpt>
            <trkpt lon="101.264226" lat="14.286647">
                <ele>27.534912</ele>
                <time>2004-09-25T09:26:15Z</time>
            </trkpt>
            <trkpt lon="101.264505" lat="14.286518">
                <ele>26.092896</ele>
                <time>2004-09-25T09:26:22Z</time>
            </trkpt>
            <trkpt lon="101.264656" lat="14.286389">
                <ele>24.651001</ele>
                <time>2004-09-25T09:26:26Z</time>
            </trkpt>
            <trkpt lon="101.265471" lat="14.285338">
                <ele>23.208984</ele>
                <time>2004-09-25T09:26:54Z</time>
            </trkpt>
            <trkpt lon="101.265600" lat="14.285231">
                <ele>22.728271</ele>
                <time>2004-09-25T09:26:57Z</time>
            </trkpt>
            <trkpt lon="101.266351" lat="14.284780">
                <ele>21.286377</ele>
                <time>2004-09-25T09:27:13Z</time>
            </trkpt>
            <trkpt lon="101.266587" lat="14.284608">
                <ele>20.805664</ele>
                <time>2004-09-25T09:27:19Z</time>
            </trkpt>
            <trkpt lon="101.266780" lat="14.284437">
                <ele>20.324951</ele>
                <time>2004-09-25T09:27:24Z</time>
            </trkpt>
            <trkpt lon="101.267617" lat="14.283900">
                <ele>18.883057</ele>
                <time>2004-09-25T09:27:41Z</time>
            </trkpt>
            <trkpt lon="101.268389" lat="14.283407">
                <ele>17.921753</ele>
                <time>2004-09-25T09:27:57Z</time>
            </trkpt>
            <trkpt lon="101.268604" lat="14.283428">
                <ele>19.844360</ele>
                <time>2004-09-25T09:28:03Z</time>
            </trkpt>
            <trkpt lon="101.268990" lat="14.283965">
                <ele>21.286377</ele>
                <time>2004-09-25T09:28:21Z</time>
            </trkpt>
            <trkpt lon="101.269097" lat="14.284093">
                <ele>21.766968</ele>
                <time>2004-09-25T09:28:25Z</time>
            </trkpt>
            <trkpt lon="101.269569" lat="14.284115">
                <ele>20.324951</ele>
                <time>2004-09-25T09:28:35Z</time>
            </trkpt>
            <trkpt lon="101.269784" lat="14.284050">
                <ele>20.324951</ele>
                <time>2004-09-25T09:28:40Z</time>
            </trkpt>
            <trkpt lon="101.270106" lat="14.283578">
                <ele>19.844360</ele>
                <time>2004-09-25T09:28:52Z</time>
            </trkpt>
            <trkpt lon="101.270449" lat="14.283106">
                <ele>19.844360</ele>
                <time>2004-09-25T09:29:03Z</time>
            </trkpt>
            <trkpt lon="101.270642" lat="14.282935">
                <ele>20.805664</ele>
                <time>2004-09-25T09:29:08Z</time>
            </trkpt>
            <trkpt lon="101.271179" lat="14.282849">
                <ele>20.805664</ele>
                <time>2004-09-25T09:29:22Z</time>
            </trkpt>
            <trkpt lon="101.271822" lat="14.282935">
                <ele>23.208984</ele>
                <time>2004-09-25T09:29:39Z</time>
            </trkpt>
            <trkpt lon="101.272187" lat="14.283085">
                <ele>24.170288</ele>
                <time>2004-09-25T09:29:57Z</time>
            </trkpt>
            <trkpt lon="101.272788" lat="14.283407">
                <ele>24.651001</ele>
                <time>2004-09-25T09:30:11Z</time>
            </trkpt>
            <trkpt lon="101.273410" lat="14.283814">
                <ele>26.573608</ele>
                <time>2004-09-25T09:30:29Z</time>
            </trkpt>
            <trkpt lon="101.273646" lat="14.284072">
                <ele>26.573608</ele>
                <time>2004-09-25T09:30:37Z</time>
            </trkpt>
            <trkpt lon="101.273968" lat="14.284265">
                <ele>27.054321</ele>
                <time>2004-09-25T09:30:45Z</time>
            </trkpt>
            <trkpt lon="101.274290" lat="14.284244">
                <ele>27.054321</ele>
                <time>2004-09-25T09:30:50Z</time>
            </trkpt>
            <trkpt lon="101.274419" lat="14.284179">
                <ele>27.054321</ele>
                <time>2004-09-25T09:30:52Z</time>
            </trkpt>
            <trkpt lon="101.274590" lat="14.284050">
                <ele>27.534912</ele>
                <time>2004-09-25T09:30:55Z</time>
            </trkpt>
            <trkpt lon="101.274784" lat="14.283900">
                <ele>26.573608</ele>
                <time>2004-09-25T09:30:58Z</time>
            </trkpt>
            <trkpt lon="101.275063" lat="14.283772">
                <ele>26.573608</ele>
                <time>2004-09-25T09:31:02Z</time>
            </trkpt>
            <trkpt lon="101.275363" lat="14.283793">
                <ele>25.131714</ele>
                <time>2004-09-25T09:31:07Z</time>
            </trkpt>
            <trkpt lon="101.275942" lat="14.283922">
                <ele>24.651001</ele>
                <time>2004-09-25T09:31:19Z</time>
            </trkpt>
            <trkpt lon="101.276243" lat="14.283900">
                <ele>22.247559</ele>
                <time>2004-09-25T09:31:26Z</time>
            </trkpt>
            <trkpt lon="101.276307" lat="14.283986">
                <ele>21.286377</ele>
                <time>2004-09-25T09:31:30Z</time>
            </trkpt>
            <trkpt lon="101.276329" lat="14.284887">
                <ele>19.844360</ele>
                <time>2004-09-25T09:31:49Z</time>
            </trkpt>
            <trkpt lon="101.276243" lat="14.285445">
                <ele>18.402344</ele>
                <time>2004-09-25T09:32:00Z</time>
            </trkpt>
            <trkpt lon="101.276264" lat="14.285553">
                <ele>18.402344</ele>
                <time>2004-09-25T09:32:02Z</time>
            </trkpt>
            <trkpt lon="101.276114" lat="14.286261">
                <ele>18.402344</ele>
                <time>2004-09-25T09:32:16Z</time>
            </trkpt>
            <trkpt lon="101.276114" lat="14.286368">
                <ele>18.402344</ele>
                <time>2004-09-25T09:32:25Z</time>
            </trkpt>
            <trkpt lon="101.276114" lat="14.286368">
                <ele>18.402344</ele>
                <time>2004-09-25T09:33:19Z</time>
            </trkpt>
            <trkpt lon="101.276135" lat="14.286346">
                <ele>18.883057</ele>
                <time>2004-09-25T09:33:36Z</time>
            </trkpt>
            <trkpt lon="101.276135" lat="14.286218">
                <ele>18.883057</ele>
                <time>2004-09-25T09:33:41Z</time>
            </trkpt>
            <trkpt lon="101.276157" lat="14.286153">
                <ele>18.883057</ele>
                <time>2004-09-25T09:33:43Z</time>
            </trkpt>
            <trkpt lon="101.276436" lat="14.285059">
                <ele>16.960449</ele>
                <time>2004-09-25T09:34:06Z</time>
            </trkpt>
            <trkpt lon="101.276457" lat="14.284394">
                <ele>18.402344</ele>
                <time>2004-09-25T09:34:21Z</time>
            </trkpt>
            <trkpt lon="101.276500" lat="14.284329">
                <ele>18.883057</ele>
                <time>2004-09-25T09:34:31Z</time>
            </trkpt>
            <trkpt lon="101.276500" lat="14.284351">
                <ele>24.170288</ele>
                <time>2004-09-25T09:35:03Z</time>
            </trkpt>
            <trkpt lon="101.276608" lat="14.284329">
                <ele>24.170288</ele>
                <time>2004-09-25T09:35:07Z</time>
            </trkpt>
            <trkpt lon="101.277230" lat="14.284158">
                <ele>23.208984</ele>
                <time>2004-09-25T09:35:22Z</time>
            </trkpt>
            <trkpt lon="101.277895" lat="14.283729">
                <ele>19.363770</ele>
                <time>2004-09-25T09:35:41Z</time>
            </trkpt>
            <trkpt lon="101.277959" lat="14.283535">
                <ele>19.363770</ele>
                <time>2004-09-25T09:35:45Z</time>
            </trkpt>
            <trkpt lon="101.278002" lat="14.283106">
                <ele>17.921753</ele>
                <time>2004-09-25T09:35:54Z</time>
            </trkpt>
            <trkpt lon="101.278024" lat="14.283020">
                <ele>17.441162</ele>
                <time>2004-09-25T09:35:56Z</time>
            </trkpt>
            <trkpt lon="101.278195" lat="14.282935">
                <ele>16.960449</ele>
                <time>2004-09-25T09:36:01Z</time>
            </trkpt>
            <trkpt lon="101.278560" lat="14.282999">
                <ele>15.999023</ele>
                <time>2004-09-25T09:36:09Z</time>
            </trkpt>
            <trkpt lon="101.278775" lat="14.282956">
                <ele>15.999023</ele>
                <time>2004-09-25T09:36:14Z</time>
            </trkpt>
            <trkpt lon="101.278968" lat="14.282935">
                <ele>15.518433</ele>
                <time>2004-09-25T09:36:18Z</time>
            </trkpt>
            <trkpt lon="101.279418" lat="14.282806">
                <ele>14.076416</ele>
                <time>2004-09-25T09:36:27Z</time>
            </trkpt>
            <trkpt lon="101.279633" lat="14.282935">
                <ele>14.076416</ele>
                <time>2004-09-25T09:36:32Z</time>
            </trkpt>
            <trkpt lon="101.279697" lat="14.283020">
                <ele>14.076416</ele>
                <time>2004-09-25T09:36:34Z</time>
            </trkpt>
            <trkpt lon="101.279955" lat="14.283085">
                <ele>13.595825</ele>
                <time>2004-09-25T09:36:40Z</time>
            </trkpt>
            <trkpt lon="101.280041" lat="14.283020">
                <ele>13.115112</ele>
                <time>2004-09-25T09:36:42Z</time>
            </trkpt>
            <trkpt lon="101.280513" lat="14.282720">
                <ele>12.153809</ele>
                <time>2004-09-25T09:36:53Z</time>
            </trkpt>
            <trkpt lon="101.280727" lat="14.282827">
                <ele>12.634399</ele>
                <time>2004-09-25T09:37:00Z</time>
            </trkpt>
            <trkpt lon="101.281114" lat="14.282956">
                <ele>14.557007</ele>
                <time>2004-09-25T09:37:12Z</time>
            </trkpt>
            <trkpt lon="101.281800" lat="14.283063">
                <ele>14.076416</ele>
                <time>2004-09-25T09:37:31Z</time>
            </trkpt>
            <trkpt lon="101.281779" lat="14.283149">
                <ele>13.595825</ele>
                <time>2004-09-25T09:37:35Z</time>
            </trkpt>
            <trkpt lon="101.281822" lat="14.283428">
                <ele>12.153809</ele>
                <time>2004-09-25T09:37:44Z</time>
            </trkpt>
            <trkpt lon="101.282058" lat="14.283557">
                <ele>10.711792</ele>
                <time>2004-09-25T09:37:52Z</time>
            </trkpt>
            <trkpt lon="101.282380" lat="14.284072">
                <ele>13.115112</ele>
                <time>2004-09-25T09:38:09Z</time>
            </trkpt>
            <trkpt lon="101.282637" lat="14.284544">
                <ele>15.999023</ele>
                <time>2004-09-25T09:38:26Z</time>
            </trkpt>
            <trkpt lon="101.282873" lat="14.285038">
                <ele>19.844360</ele>
                <time>2004-09-25T09:38:45Z</time>
            </trkpt>
            <trkpt lon="101.282830" lat="14.285038">
                <ele>16.479736</ele>
                <time>2004-09-25T09:38:58Z</time>
            </trkpt>
            <trkpt lon="101.282766" lat="14.285059">
                <ele>15.999023</ele>
                <time>2004-09-25T09:39:03Z</time>
            </trkpt>
            <trkpt lon="101.282530" lat="14.285145">
                <ele>16.960449</ele>
                <time>2004-09-25T09:39:20Z</time>
            </trkpt>
            <trkpt lon="101.282337" lat="14.285209">
                <ele>15.518433</ele>
                <time>2004-09-25T09:39:37Z</time>
            </trkpt>
            <trkpt lon="101.282315" lat="14.285209">
                <ele>15.518433</ele>
                <time>2004-09-25T09:39:38Z</time>
            </trkpt>
            <trkpt lon="101.282294" lat="14.285252">
                <ele>15.037720</ele>
                <time>2004-09-25T09:39:43Z</time>
            </trkpt>
            <trkpt lon="101.281736" lat="14.285381">
                <ele>15.037720</ele>
                <time>2004-09-25T09:40:06Z</time>
            </trkpt>
            <trkpt lon="101.281328" lat="14.285359">
                <ele>16.479736</ele>
                <time>2004-09-25T09:40:22Z</time>
            </trkpt>
            <trkpt lon="101.280813" lat="14.285445">
                <ele>18.402344</ele>
                <time>2004-09-25T09:40:41Z</time>
            </trkpt>
            <trkpt lon="101.280599" lat="14.285595">
                <ele>17.441162</ele>
                <time>2004-09-25T09:40:57Z</time>
            </trkpt>
            <trkpt lon="101.280599" lat="14.285617">
                <ele>17.441162</ele>
                <time>2004-09-25T09:40:58Z</time>
            </trkpt>
            <trkpt lon="101.280684" lat="14.285703">
                <ele>16.479736</ele>
                <time>2004-09-25T09:41:03Z</time>
            </trkpt>
            <trkpt lon="101.281006" lat="14.286046">
                <ele>16.960449</ele>
                <time>2004-09-25T09:41:19Z</time>
            </trkpt>
            <trkpt lon="101.281285" lat="14.286346">
                <ele>17.441162</ele>
                <time>2004-09-25T09:41:36Z</time>
            </trkpt>
            <trkpt lon="101.281435" lat="14.286540">
                <ele>17.921753</ele>
                <time>2004-09-25T09:41:49Z</time>
            </trkpt>
            <trkpt lon="101.281564" lat="14.286647">
                <ele>16.479736</ele>
                <time>2004-09-25T09:41:58Z</time>
            </trkpt>
            <trkpt lon="101.281564" lat="14.286711">
                <ele>16.479736</ele>
                <time>2004-09-25T09:42:02Z</time>
            </trkpt>
            <trkpt lon="101.281650" lat="14.286776">
                <ele>16.479736</ele>
                <time>2004-09-25T09:42:06Z</time>
            </trkpt>
            <trkpt lon="101.281865" lat="14.286861">
                <ele>16.479736</ele>
                <time>2004-09-25T09:42:14Z</time>
            </trkpt>
            <trkpt lon="101.281843" lat="14.287119">
                <ele>16.479736</ele>
                <time>2004-09-25T09:42:24Z</time>
            </trkpt>
            <trkpt lon="101.281736" lat="14.287183">
                <ele>15.518433</ele>
                <time>2004-09-25T09:42:28Z</time>
            </trkpt>
            <trkpt lon="101.280813" lat="14.287634">
                <ele>15.999023</ele>
                <time>2004-09-25T09:42:57Z</time>
            </trkpt>
            <trkpt lon="101.280599" lat="14.288278">
                <ele>16.479736</ele>
                <time>2004-09-25T09:43:15Z</time>
            </trkpt>
            <trkpt lon="101.280599" lat="14.288321">
                <ele>16.479736</ele>
                <time>2004-09-25T09:43:17Z</time>
            </trkpt>
            <trkpt lon="101.280835" lat="14.288514">
                <ele>16.960449</ele>
                <time>2004-09-25T09:43:31Z</time>
            </trkpt>
            <trkpt lon="101.280985" lat="14.288642">
                <ele>16.479736</ele>
                <time>2004-09-25T09:43:36Z</time>
            </trkpt>
            <trkpt lon="101.281092" lat="14.288728">
                <ele>16.479736</ele>
                <time>2004-09-25T09:43:39Z</time>
            </trkpt>
            <trkpt lon="101.281865" lat="14.289157">
                <ele>18.402344</ele>
                <time>2004-09-25T09:43:56Z</time>
            </trkpt>
            <trkpt lon="101.283109" lat="14.289758">
                <ele>16.960449</ele>
                <time>2004-09-25T09:44:19Z</time>
            </trkpt>
            <trkpt lon="101.284289" lat="14.290359">
                <ele>17.921753</ele>
                <time>2004-09-25T09:44:41Z</time>
            </trkpt>
            <trkpt lon="101.285512" lat="14.291174">
                <ele>16.960449</ele>
                <time>2004-09-25T09:45:04Z</time>
            </trkpt>
            <trkpt lon="101.286607" lat="14.291968">
                <ele>17.441162</ele>
                <time>2004-09-25T09:45:26Z</time>
            </trkpt>
            <trkpt lon="101.287851" lat="14.292848">
                <ele>17.921753</ele>
                <time>2004-09-25T09:45:52Z</time>
            </trkpt>
            <trkpt lon="101.288967" lat="14.293642">
                <ele>17.921753</ele>
                <time>2004-09-25T09:46:16Z</time>
            </trkpt>
            <trkpt lon="101.290212" lat="14.294522">
                <ele>18.883057</ele>
                <time>2004-09-25T09:46:43Z</time>
            </trkpt>
            <trkpt lon="101.291134" lat="14.295187">
                <ele>20.324951</ele>
                <time>2004-09-25T09:47:05Z</time>
            </trkpt>
            <trkpt lon="101.291885" lat="14.295723">
                <ele>19.363770</ele>
                <time>2004-09-25T09:47:26Z</time>
            </trkpt>
            <trkpt lon="101.292357" lat="14.296389">
                <ele>20.805664</ele>
                <time>2004-09-25T09:47:44Z</time>
            </trkpt>
            <trkpt lon="101.292486" lat="14.297268">
                <ele>22.247559</ele>
                <time>2004-09-25T09:48:03Z</time>
            </trkpt>
            <trkpt lon="101.292744" lat="14.298449">
                <ele>24.170288</ele>
                <time>2004-09-25T09:48:26Z</time>
            </trkpt>
            <trkpt lon="101.292958" lat="14.299457">
                <ele>25.612305</ele>
                <time>2004-09-25T09:48:46Z</time>
            </trkpt>
            <trkpt lon="101.293216" lat="14.300680">
                <ele>26.573608</ele>
                <time>2004-09-25T09:49:10Z</time>
            </trkpt>
            <trkpt lon="101.293430" lat="14.301560">
                <ele>27.054321</ele>
                <time>2004-09-25T09:49:28Z</time>
            </trkpt>
            <trkpt lon="101.293516" lat="14.302461">
                <ele>28.496216</ele>
                <time>2004-09-25T09:49:46Z</time>
            </trkpt>
            <trkpt lon="101.293516" lat="14.302676">
                <ele>29.938110</ele>
                <time>2004-09-25T09:49:59Z</time>
            </trkpt>
            <trkpt lon="101.293516" lat="14.302697">
                <ele>32.822266</ele>
                <time>2004-09-25T09:50:35Z</time>
            </trkpt>
            <trkpt lon="101.293495" lat="14.302719">
                <ele>30.899536</ele>
                <time>2004-09-25T09:50:46Z</time>
            </trkpt>
            <trkpt lon="101.293516" lat="14.302719">
                <ele>28.015503</ele>
                <time>2004-09-25T09:51:08Z</time>
            </trkpt>
            <trkpt lon="101.293602" lat="14.302762">
                <ele>28.015503</ele>
                <time>2004-09-25T09:51:13Z</time>
            </trkpt>
            <trkpt lon="101.294181" lat="14.302804">
                <ele>27.534912</ele>
                <time>2004-09-25T09:51:29Z</time>
            </trkpt>
            <trkpt lon="101.295018" lat="14.302740">
                <ele>27.054321</ele>
                <time>2004-09-25T09:51:45Z</time>
            </trkpt>
            <trkpt lon="101.296413" lat="14.302418">
                <ele>26.573608</ele>
                <time>2004-09-25T09:52:08Z</time>
            </trkpt>
            <trkpt lon="101.297507" lat="14.302161">
                <ele>26.573608</ele>
                <time>2004-09-25T09:52:27Z</time>
            </trkpt>
            <trkpt lon="101.298323" lat="14.301989">
                <ele>26.573608</ele>
                <time>2004-09-25T09:52:41Z</time>
            </trkpt>
            <trkpt lon="101.298580" lat="14.302032">
                <ele>26.573608</ele>
                <time>2004-09-25T09:52:45Z</time>
            </trkpt>
            <trkpt lon="101.299868" lat="14.302139">
                <ele>23.208984</ele>
                <time>2004-09-25T09:53:04Z</time>
            </trkpt>
            <trkpt lon="101.301005" lat="14.302332">
                <ele>22.247559</ele>
                <time>2004-09-25T09:53:23Z</time>
            </trkpt>
            <trkpt lon="101.301606" lat="14.302354">
                <ele>22.247559</ele>
                <time>2004-09-25T09:53:33Z</time>
            </trkpt>
            <trkpt lon="101.301820" lat="14.302268">
                <ele>21.286377</ele>
                <time>2004-09-25T09:53:37Z</time>
            </trkpt>
            <trkpt lon="101.301970" lat="14.302182">
                <ele>19.844360</ele>
                <time>2004-09-25T09:53:40Z</time>
            </trkpt>
            <trkpt lon="101.302164" lat="14.302118">
                <ele>18.883057</ele>
                <time>2004-09-25T09:53:44Z</time>
            </trkpt>
            <trkpt lon="101.302292" lat="14.302311">
                <ele>18.402344</ele>
                <time>2004-09-25T09:53:49Z</time>
            </trkpt>
            <trkpt lon="101.302722" lat="14.302869">
                <ele>19.844360</ele>
                <time>2004-09-25T09:54:07Z</time>
            </trkpt>
            <trkpt lon="101.302936" lat="14.303362">
                <ele>22.728271</ele>
                <time>2004-09-25T09:54:25Z</time>
            </trkpt>
            <trkpt lon="101.303430" lat="14.304028">
                <ele>20.324951</ele>
                <time>2004-09-25T09:54:49Z</time>
            </trkpt>
            <trkpt lon="101.303730" lat="14.304414">
                <ele>21.286377</ele>
                <time>2004-09-25T09:55:03Z</time>
            </trkpt>
            <trkpt lon="101.304052" lat="14.304993">
                <ele>24.651001</ele>
                <time>2004-09-25T09:55:23Z</time>
            </trkpt>
            <trkpt lon="101.304374" lat="14.305208">
                <ele>23.208984</ele>
                <time>2004-09-25T09:55:36Z</time>
            </trkpt>
            <trkpt lon="101.304545" lat="14.305358">
                <ele>23.208984</ele>
                <time>2004-09-25T09:55:44Z</time>
            </trkpt>
            <trkpt lon="101.304824" lat="14.305251">
                <ele>21.766968</ele>
                <time>2004-09-25T09:55:52Z</time>
            </trkpt>
            <trkpt lon="101.305275" lat="14.305680">
                <ele>24.170288</ele>
                <time>2004-09-25T09:56:12Z</time>
            </trkpt>
            <trkpt lon="101.305790" lat="14.306173">
                <ele>21.766968</ele>
                <time>2004-09-25T09:56:35Z</time>
            </trkpt>
            <trkpt lon="101.306198" lat="14.306452">
                <ele>21.286377</ele>
                <time>2004-09-25T09:56:49Z</time>
            </trkpt>
            <trkpt lon="101.306992" lat="14.307289">
                <ele>23.208984</ele>
                <time>2004-09-25T09:57:57Z</time>
            </trkpt>
            <trkpt lon="101.307013" lat="14.307353">
                <ele>28.976929</ele>
                <time>2004-09-25T09:58:08Z</time>
            </trkpt>
            <trkpt lon="101.307292" lat="14.307997">
                <ele>29.938110</ele>
                <time>2004-09-25T09:58:31Z</time>
            </trkpt>
            <trkpt lon="101.307313" lat="14.308040">
                <ele>29.938110</ele>
                <time>2004-09-25T09:58:32Z</time>
            </trkpt>
            <trkpt lon="101.307464" lat="14.308856">
                <ele>29.938110</ele>
                <time>2004-09-25T09:58:53Z</time>
            </trkpt>
            <trkpt lon="101.307507" lat="14.308920">
                <ele>30.418823</ele>
                <time>2004-09-25T09:58:56Z</time>
            </trkpt>
            <trkpt lon="101.307571" lat="14.308920">
                <ele>24.651001</ele>
                <time>2004-09-25T09:59:16Z</time>
            </trkpt>
            <trkpt lon="101.307871" lat="14.308834">
                <ele>24.651001</ele>
                <time>2004-09-25T09:59:29Z</time>
            </trkpt>
            <trkpt lon="101.307979" lat="14.308813">
                <ele>23.208984</ele>
                <time>2004-09-25T09:59:36Z</time>
            </trkpt>
            <trkpt lon="101.308000" lat="14.308813">
                <ele>23.208984</ele>
                <time>2004-09-25T09:59:57Z</time>
            </trkpt>
            <trkpt lon="101.308022" lat="14.308834">
                <ele>23.689575</ele>
                <time>2004-09-25T10:00:06Z</time>
            </trkpt>
            <trkpt lon="101.308022" lat="14.308856">
                <ele>24.651001</ele>
                <time>2004-09-25T10:00:11Z</time>
            </trkpt>
            <trkpt lon="101.308022" lat="14.309027">
                <ele>24.651001</ele>
                <time>2004-09-25T10:00:29Z</time>
            </trkpt>
            <trkpt lon="101.308043" lat="14.309049">
                <ele>22.728271</ele>
                <time>2004-09-25T10:00:46Z</time>
            </trkpt>
            <trkpt lon="101.308086" lat="14.309092">
                <ele>21.286377</ele>
                <time>2004-09-25T10:01:07Z</time>
            </trkpt>
            <trkpt lon="101.308129" lat="14.309113">
                <ele>20.805664</ele>
                <time>2004-09-25T10:01:24Z</time>
            </trkpt>
            <trkpt lon="101.308150" lat="14.309134">
                <ele>21.286377</ele>
                <time>2004-09-25T10:01:38Z</time>
            </trkpt>
            <trkpt lon="101.308172" lat="14.309156">
                <ele>21.766968</ele>
                <time>2004-09-25T10:01:51Z</time>
            </trkpt>
            <trkpt lon="101.308193" lat="14.309177">
                <ele>20.324951</ele>
                <time>2004-09-25T10:02:12Z</time>
            </trkpt>
            <trkpt lon="101.308236" lat="14.309177">
                <ele>18.883057</ele>
                <time>2004-09-25T10:02:41Z</time>
            </trkpt>
            <trkpt lon="101.308236" lat="14.309134">
                <ele>22.247559</ele>
                <time>2004-09-25T10:02:57Z</time>
            </trkpt>
            <trkpt lon="101.308258" lat="14.309199">
                <ele>23.689575</ele>
                <time>2004-09-25T10:03:17Z</time>
            </trkpt>
            <trkpt lon="101.308279" lat="14.309199">
                <ele>23.208984</ele>
                <time>2004-09-25T10:03:35Z</time>
            </trkpt>
            <trkpt lon="101.308300" lat="14.309177">
                <ele>24.651001</ele>
                <time>2004-09-25T10:03:53Z</time>
            </trkpt>
            <trkpt lon="101.308365" lat="14.309134">
                <ele>25.612305</ele>
                <time>2004-09-25T10:04:05Z</time>
            </trkpt>
            <trkpt lon="101.308365" lat="14.309113">
                <ele>26.573608</ele>
                <time>2004-09-25T10:04:14Z</time>
            </trkpt>
            <trkpt lon="101.308558" lat="14.308941">
                <ele>25.612305</ele>
                <time>2004-09-25T10:04:23Z</time>
            </trkpt>
            <trkpt lon="101.308923" lat="14.308619">
                <ele>25.131714</ele>
                <time>2004-09-25T10:04:39Z</time>
            </trkpt>
            <trkpt lon="101.309073" lat="14.308619">
                <ele>24.170288</ele>
                <time>2004-09-25T10:04:52Z</time>
            </trkpt>
            <trkpt lon="101.309073" lat="14.308619">
                <ele>23.689575</ele>
                <time>2004-09-25T10:05:01Z</time>
            </trkpt>
            <trkpt lon="101.309288" lat="14.308813">
                <ele>25.131714</ele>
                <time>2004-09-25T10:05:17Z</time>
            </trkpt>
            <trkpt lon="101.309373" lat="14.308791">
                <ele>25.131714</ele>
                <time>2004-09-25T10:05:22Z</time>
            </trkpt>
            <trkpt lon="101.309609" lat="14.308491">
                <ele>27.534912</ele>
                <time>2004-09-25T10:05:37Z</time>
            </trkpt>
            <trkpt lon="101.309781" lat="14.308190">
                <ele>28.015503</ele>
                <time>2004-09-25T10:05:53Z</time>
            </trkpt>
            <trkpt lon="101.309781" lat="14.308169">
                <ele>27.534912</ele>
                <time>2004-09-25T10:05:55Z</time>
            </trkpt>
            <trkpt lon="101.309695" lat="14.308105">
                <ele>26.092896</ele>
                <time>2004-09-25T10:06:02Z</time>
            </trkpt>
            <trkpt lon="101.309545" lat="14.308019">
                <ele>25.131714</ele>
                <time>2004-09-25T10:06:09Z</time>
            </trkpt>
            <trkpt lon="101.309502" lat="14.308040">
                <ele>25.612305</ele>
                <time>2004-09-25T10:06:21Z</time>
            </trkpt>
            <trkpt lon="101.309609" lat="14.308040">
                <ele>26.092896</ele>
                <time>2004-09-25T10:06:26Z</time>
            </trkpt>
            <trkpt lon="101.309717" lat="14.308212">
                <ele>25.612305</ele>
                <time>2004-09-25T10:06:33Z</time>
            </trkpt>
            <trkpt lon="101.309459" lat="14.308684">
                <ele>26.092896</ele>
                <time>2004-09-25T10:06:48Z</time>
            </trkpt>
            <trkpt lon="101.309288" lat="14.309070">
                <ele>25.131714</ele>
                <time>2004-09-25T10:07:01Z</time>
            </trkpt>
            <trkpt lon="101.309266" lat="14.309478">
                <ele>24.651001</ele>
                <time>2004-09-25T10:07:17Z</time>
            </trkpt>
            <trkpt lon="101.309352" lat="14.309864">
                <ele>25.131714</ele>
                <time>2004-09-25T10:07:29Z</time>
            </trkpt>
            <trkpt lon="101.309738" lat="14.310122">
                <ele>27.054321</ele>
                <time>2004-09-25T10:07:41Z</time>
            </trkpt>
            <trkpt lon="101.309502" lat="14.310637">
                <ele>25.612305</ele>
                <time>2004-09-25T10:07:56Z</time>
            </trkpt>
            <trkpt lon="101.309352" lat="14.311001">
                <ele>25.131714</ele>
                <time>2004-09-25T10:08:05Z</time>
            </trkpt>
            <trkpt lon="101.309266" lat="14.311109">
                <ele>26.092896</ele>
                <time>2004-09-25T10:08:08Z</time>
            </trkpt>
            <trkpt lon="101.309223" lat="14.311280">
                <ele>26.573608</ele>
                <time>2004-09-25T10:08:12Z</time>
            </trkpt>
            <trkpt lon="101.309288" lat="14.311709">
                <ele>27.534912</ele>
                <time>2004-09-25T10:08:22Z</time>
            </trkpt>
            <trkpt lon="101.309459" lat="14.312396">
                <ele>29.457520</ele>
                <time>2004-09-25T10:08:39Z</time>
            </trkpt>
            <trkpt lon="101.309438" lat="14.312825">
                <ele>29.457520</ele>
                <time>2004-09-25T10:08:48Z</time>
            </trkpt>
            <trkpt lon="101.309588" lat="14.313426">
                <ele>29.938110</ele>
                <time>2004-09-25T10:09:02Z</time>
            </trkpt>
            <trkpt lon="101.309609" lat="14.313598">
                <ele>29.938110</ele>
                <time>2004-09-25T10:09:06Z</time>
            </trkpt>
            <trkpt lon="101.309502" lat="14.314241">
                <ele>29.938110</ele>
                <time>2004-09-25T10:09:22Z</time>
            </trkpt>
            <trkpt lon="101.309330" lat="14.314971">
                <ele>29.938110</ele>
                <time>2004-09-25T10:09:39Z</time>
            </trkpt>
            <trkpt lon="101.309352" lat="14.315143">
                <ele>29.938110</ele>
                <time>2004-09-25T10:09:43Z</time>
            </trkpt>
            <trkpt lon="101.309481" lat="14.315422">
                <ele>29.457520</ele>
                <time>2004-09-25T10:09:50Z</time>
            </trkpt>
            <trkpt lon="101.309996" lat="14.316130">
                <ele>29.938110</ele>
                <time>2004-09-25T10:10:08Z</time>
            </trkpt>
            <trkpt lon="101.310618" lat="14.316516">
                <ele>28.496216</ele>
                <time>2004-09-25T10:10:22Z</time>
            </trkpt>
            <trkpt lon="101.310790" lat="14.316602">
                <ele>28.976929</ele>
                <time>2004-09-25T10:10:26Z</time>
            </trkpt>
            <trkpt lon="101.311090" lat="14.316730">
                <ele>28.976929</ele>
                <time>2004-09-25T10:10:33Z</time>
            </trkpt>
            <trkpt lon="101.311219" lat="14.317074">
                <ele>30.418823</ele>
                <time>2004-09-25T10:10:42Z</time>
            </trkpt>
            <trkpt lon="101.311326" lat="14.318168">
                <ele>32.822266</ele>
                <time>2004-09-25T10:11:05Z</time>
            </trkpt>
            <trkpt lon="101.311433" lat="14.319220">
                <ele>31.860718</ele>
                <time>2004-09-25T10:11:26Z</time>
            </trkpt>
            <trkpt lon="101.311369" lat="14.320035">
                <ele>32.341553</ele>
                <time>2004-09-25T10:11:42Z</time>
            </trkpt>
            <trkpt lon="101.311455" lat="14.320765">
                <ele>34.744873</ele>
                <time>2004-09-25T10:11:57Z</time>
            </trkpt>
            <trkpt lon="101.311498" lat="14.320850">
                <ele>35.706055</ele>
                <time>2004-09-25T10:11:59Z</time>
            </trkpt>
            <trkpt lon="101.311777" lat="14.321237">
                <ele>34.744873</ele>
                <time>2004-09-25T10:12:09Z</time>
            </trkpt>
            <trkpt lon="101.311862" lat="14.321387">
                <ele>34.744873</ele>
                <time>2004-09-25T10:12:13Z</time>
            </trkpt>
            <trkpt lon="101.311991" lat="14.322202">
                <ele>36.667480</ele>
                <time>2004-09-25T10:12:32Z</time>
            </trkpt>
            <trkpt lon="101.312099" lat="14.322782">
                <ele>38.109375</ele>
                <time>2004-09-25T10:12:48Z</time>
            </trkpt>
            <trkpt lon="101.312120" lat="14.322803">
                <ele>38.109375</ele>
                <time>2004-09-25T10:12:49Z</time>
            </trkpt>
            <trkpt lon="101.312699" lat="14.322975">
                <ele>37.628662</ele>
                <time>2004-09-25T10:13:04Z</time>
            </trkpt>
            <trkpt lon="101.313558" lat="14.323232">
                <ele>42.435425</ele>
                <time>2004-09-25T10:13:27Z</time>
            </trkpt>
            <trkpt lon="101.314416" lat="14.323640">
                <ele>41.954712</ele>
                <time>2004-09-25T10:13:46Z</time>
            </trkpt>
            <trkpt lon="101.315103" lat="14.324391">
                <ele>39.070679</ele>
                <time>2004-09-25T10:14:05Z</time>
            </trkpt>
            <trkpt lon="101.315639" lat="14.324992">
                <ele>39.551270</ele>
                <time>2004-09-25T10:14:24Z</time>
            </trkpt>
            <trkpt lon="101.315768" lat="14.325078">
                <ele>40.032104</ele>
                <time>2004-09-25T10:14:28Z</time>
            </trkpt>
            <trkpt lon="101.316004" lat="14.325056">
                <ele>40.032104</ele>
                <time>2004-09-25T10:14:34Z</time>
            </trkpt>
            <trkpt lon="101.316454" lat="14.324927">
                <ele>40.032104</ele>
                <time>2004-09-25T10:14:46Z</time>
            </trkpt>
            <trkpt lon="101.316519" lat="14.324841">
                <ele>40.512817</ele>
                <time>2004-09-25T10:14:49Z</time>
            </trkpt>
            <trkpt lon="101.316154" lat="14.323983">
                <ele>40.032104</ele>
                <time>2004-09-25T10:15:09Z</time>
            </trkpt>
            <trkpt lon="101.315854" lat="14.323404">
                <ele>40.512817</ele>
                <time>2004-09-25T10:15:25Z</time>
            </trkpt>
            <trkpt lon="101.315897" lat="14.323339">
                <ele>40.512817</ele>
                <time>2004-09-25T10:15:27Z</time>
            </trkpt>
            <trkpt lon="101.316047" lat="14.323061">
                <ele>40.032104</ele>
                <time>2004-09-25T10:15:35Z</time>
            </trkpt>
            <trkpt lon="101.316261" lat="14.322824">
                <ele>40.512817</ele>
                <time>2004-09-25T10:15:43Z</time>
            </trkpt>
            <trkpt lon="101.316369" lat="14.322760">
                <ele>40.032104</ele>
                <time>2004-09-25T10:15:46Z</time>
            </trkpt>
            <trkpt lon="101.316519" lat="14.322803">
                <ele>39.551270</ele>
                <time>2004-09-25T10:15:49Z</time>
            </trkpt>
            <trkpt lon="101.316626" lat="14.322889">
                <ele>40.993408</ele>
                <time>2004-09-25T10:15:52Z</time>
            </trkpt>
            <trkpt lon="101.316755" lat="14.323297">
                <ele>41.473999</ele>
                <time>2004-09-25T10:16:08Z</time>
            </trkpt>
            <trkpt lon="101.316755" lat="14.323318">
                <ele>38.590088</ele>
                <time>2004-09-25T10:16:28Z</time>
            </trkpt>
            <trkpt lon="101.316648" lat="14.323232">
                <ele>65.026367</ele>
                <time>2004-09-25T10:19:12Z</time>
            </trkpt>
        </trkseg>
    </trk>
</gpx>